PORTS® Data Listing: 9410660 Los Angeles, CA

CO-OPS RAW PORTS DATA

************************      PRELIMINARY DATA      ************************** 

     THIS RAW DATA HAS NOT BEEN SUBJECT TO THE NATIONAL OCEAN SERVICE'S        
     QUALITY CONTROL OR QUALITY ASSURANCE PROCEDURES AND DOES NOT MEET         
     THE CRITERIA AND STANDARDS OF OFFICIAL NATIONAL OCEAN SERVICE             
     DATA.  IT IS RELEASED FOR LIMITED PUBLIC USE AS PRELIMINARY DATA TO       
     BE USED ONLY WITH APPROPRIATE CAUTION.                                    

************************      PRELIMINARY DATA      ************************** 


       CD   -   Calendar date
       T    -   Time
       TZ   -   Timezone
       PW   -   Predicted water level (feet above MLLW)
       OW   -   Observed water level (feet above MLLW)
       WS   -   Wind speed (knots)
       WD   -   Wind direction (degrees true)
       WG   -   Wind gust (knots)
       AT   -   Air temperature (degrees farenheit)
       WT   -   Water temperature (degrees farenheit)
       AP   -   Air pressure (millibars)
       SA   -   Salinty (PSU - Practical Salinity Units)
       SG   -   Specific gravity
       RH   -   Relative humidity
       AG   -   Air gap (feet)
       VI   -   Visibility (nautical miles)

       ** NOTE **
       A variable that has its data fields filled with "9"s, indicates that
       data was not collected for that sample period.
       **********


STATION NAME: Los Angeles (9410660)
****************************************************************************************************
    CD       T    TZ    PW     OW    WS   WD   WG    AT    WT    AP    SA    SG     RH    AG   VI
****************************************************************************************************
2019/11/14 23:24 PST    3.69   3.75 -999 -999 -999 -99.9  65.1 1020.4 -9.9 -9.999 -99.9 -99.99 -9.99
2019/11/14 23:30 PST    3.68   3.72 -999 -999 -999 -99.9  65.1 1020.4 -9.9 -9.999 -99.9 -99.99 -9.99
2019/11/14 23:36 PST    3.66   3.72 -999 -999 -999 -99.9  65.1 1020.4 -9.9 -9.999 -99.9 -99.99 -9.99
2019/11/14 23:42 PST    3.64   3.71 -999 -999 -999 -99.9  65.1 1020.4 -9.9 -9.999 -99.9 -99.99 -9.99
2019/11/14 23:48 PST    3.62   3.75 -999 -999 -999 -99.9  65.1 1020.4 -9.9 -9.999 -99.9 -99.99 -9.99
2019/11/14 23:54 PST    3.59   3.72 -999 -999 -999 -99.9  65.1 1020.4 -9.9 -9.999 -99.9 -99.99 -9.99
2019/11/15 00:00 PST    3.56   3.70 -999 -999 -999 -99.9  65.1 1020.5 -9.9 -9.999 -99.9 -99.99 -9.99
2019/11/15 00:06 PST    3.53   3.63 -999 -999 -999 -99.9  65.1 1020.4 -9.9 -9.999 -99.9 -99.99 -9.99
2019/11/15 00:12 PST    3.50   3.59 -999 -999 -999 -99.9  65.1 1020.4 -9.9 -9.999 -99.9 -99.99 -9.99
2019/11/15 00:18 PST    3.47   3.55 -999 -999 -999 -99.9  65.1 1020.4 -9.9 -9.999 -99.9 -99.99 -9.99
2019/11/15 00:24 PST    3.43   3.53 -999 -999 -999 -99.9  65.1 1020.3 -9.9 -9.999 -99.9 -99.99 -9.99
2019/11/15 00:30 PST    3.39   3.47 -999 -999 -999 -99.9  65.1 1020.3 -9.9 -9.999 -99.9 -99.99 -9.99
2019/11/15 00:36 PST    3.35   3.44 -999 -999 -999 -99.9  65.1 1020.4 -9.9 -9.999 -99.9 -99.99 -9.99
2019/11/15 00:42 PST    3.31   3.47 -999 -999 -999 -99.9  65.1 1020.3 -9.9 -9.999 -99.9 -99.99 -9.99
2019/11/15 00:48 PST    3.27   3.44 -999 -999 -999 -99.9  65.1 1020.3 -9.9 -9.999 -99.9 -99.99 -9.99
2019/11/15 00:54 PST    3.23   3.37 -999 -999 -999 -99.9  65.1 1020.1 -9.9 -9.999 -99.9 -99.99 -9.99
2019/11/15 01:00 PST    3.19   3.34 -999 -999 -999 -99.9  65.1 1020.1 -9.9 -9.999 -99.9 -99.99 -9.99
2019/11/15 01:06 PST    3.14   3.29 -999 -999 -999 -99.9  65.1 1020.1 -9.9 -9.999 -99.9 -99.99 -9.99
2019/11/15 01:12 PST    3.10   3.25 -999 -999 -999 -99.9  65.1 1020.0 -9.9 -9.999 -99.9 -99.99 -9.99
2019/11/15 01:18 PST    3.06   3.20 -999 -999 -999 -99.9  65.1 1020.0 -9.9 -9.999 -99.9 -99.99 -9.99
2019/11/15 01:24 PST    3.01   3.15 -999 -999 -999 -99.9  65.1 1020.0 -9.9 -9.999 -99.9 -99.99 -9.99
2019/11/15 01:30 PST    2.97   3.08 -999 -999 -999 -99.9  65.1 1020.0 -9.9 -9.999 -99.9 -99.99 -9.99
2019/11/15 01:36 PST    2.93   3.04 -999 -999 -999 -99.9  65.1 1019.9 -9.9 -9.999 -99.9 -99.99 -9.99
2019/11/15 01:42 PST    2.89   3.03 -999 -999 -999 -99.9  65.1 1019.9 -9.9 -9.999 -99.9 -99.99 -9.99
2019/11/15 01:48 PST    2.85   2.98 -999 -999 -999 -99.9  65.1 1019.8 -9.9 -9.999 -99.9 -99.99 -9.99
2019/11/15 01:54 PST    2.81   2.91 -999 -999 -999 -99.9  65.1 1019.5 -9.9 -9.999 -99.9 -99.99 -9.99
2019/11/15 02:00 PST    2.77   2.87 -999 -999 -999 -99.9  65.1 1019.7 -9.9 -9.999 -99.9 -99.99 -9.99
2019/11/15 02:06 PST    2.73   2.84 -999 -999 -999 -99.9  65.3 1019.8 -9.9 -9.999 -99.9 -99.99 -9.99
2019/11/15 02:12 PST    2.69   2.83 -999 -999 -999 -99.9  65.3 1019.9 -9.9 -9.999 -99.9 -99.99 -9.99
2019/11/15 02:18 PST    2.66   2.82 -999 -999 -999 -99.9  65.3 1019.8 -9.9 -9.999 -99.9 -99.99 -9.99
2019/11/15 02:24 PST    2.63   2.82 -999 -999 -999 -99.9  65.3 1020.0 -9.9 -9.999 -99.9 -99.99 -9.99
2019/11/15 02:30 PST    2.60   2.76 -999 -999 -999 -99.9  65.3 1020.0 -9.9 -9.999 -99.9 -99.99 -9.99
2019/11/15 02:36 PST    2.57   2.74 -999 -999 -999 -99.9  65.3 1019.9 -9.9 -9.999 -99.9 -99.99 -9.99
2019/11/15 02:42 PST    2.55   2.73 -999 -999 -999 -99.9  65.3 1019.8 -9.9 -9.999 -99.9 -99.99 -9.99
2019/11/15 02:48 PST    2.53   2.70 -999 -999 -999 -99.9  65.3 1019.6 -9.9 -9.999 -99.9 -99.99 -9.99
2019/11/15 02:54 PST    2.51   2.64 -999 -999 -999 -99.9  65.3 1019.6 -9.9 -9.999 -99.9 -99.99 -9.99
2019/11/15 03:00 PST    2.49   2.62 -999 -999 -999 -99.9  65.3 1019.8 -9.9 -9.999 -99.9 -99.99 -9.99
2019/11/15 03:06 PST    2.48   2.61 -999 -999 -999 -99.9  65.3 1019.8 -9.9 -9.999 -99.9 -99.99 -9.99
2019/11/15 03:12 PST    2.47   2.61 -999 -999 -999 -99.9  65.3 1019.9 -9.9 -9.999 -99.9 -99.99 -9.99
2019/11/15 03:18 PST    2.46   2.65 -999 -999 -999 -99.9  65.3 1019.9 -9.9 -9.999 -99.9 -99.99 -9.99
2019/11/15 03:24 PST    2.46   2.68 -999 -999 -999 -99.9  65.3 1019.9 -9.9 -9.999 -99.9 -99.99 -9.99
2019/11/15 03:30 PST    2.46   2.67 -999 -999 -999 -99.9  65.3 1019.9 -9.9 -9.999 -99.9 -99.99 -9.99
2019/11/15 03:36 PST    2.46   2.64 -999 -999 -999 -99.9  65.3 1019.9 -9.9 -9.999 -99.9 -99.99 -9.99
2019/11/15 03:42 PST    2.47   2.61 -999 -999 -999 -99.9  65.3 1019.8 -9.9 -9.999 -99.9 -99.99 -9.99
2019/11/15 03:48 PST    2.48   2.60 -999 -999 -999 -99.9  65.3 1019.9 -9.9 -9.999 -99.9 -99.99 -9.99
2019/11/15 03:54 PST    2.49   2.60 -999 -999 -999 -99.9  65.3 1019.8 -9.9 -9.999 -99.9 -99.99 -9.99
2019/11/15 04:00 PST    2.51   2.61 -999 -999 -999 -99.9  65.3 1019.8 -9.9 -9.999 -99.9 -99.99 -9.99
2019/11/15 04:06 PST    2.53   2.60 -999 -999 -999 -99.9  65.3 1019.8 -9.9 -9.999 -99.9 -99.99 -9.99
2019/11/15 04:12 PST    2.56   2.69 -999 -999 -999 -99.9  65.1 1019.8 -9.9 -9.999 -99.9 -99.99 -9.99
2019/11/15 04:18 PST    2.59   2.76 -999 -999 -999 -99.9  65.1 1019.6 -9.9 -9.999 -99.9 -99.99 -9.99
2019/11/15 04:24 PST    2.62   2.80 -999 -999 -999 -99.9  65.3 1019.6 -9.9 -9.999 -99.9 -99.99 -9.99
2019/11/15 04:30 PST    2.65   2.83 -999 -999 -999 -99.9  65.3 1019.5 -9.9 -9.999 -99.9 -99.99 -9.99
2019/11/15 04:36 PST    2.69   2.86 -999 -999 -999 -99.9  65.3 1019.6 -9.9 -9.999 -99.9 -99.99 -9.99
2019/11/15 04:42 PST    2.74   2.84 -999 -999 -999 -99.9  65.3 1019.6 -9.9 -9.999 -99.9 -99.99 -9.99
2019/11/15 04:48 PST    2.78   2.89 -999 -999 -999 -99.9  65.3 1019.6 -9.9 -9.999 -99.9 -99.99 -9.99
2019/11/15 04:54 PST    2.83   2.94 -999 -999 -999 -99.9  65.1 1019.5 -9.9 -9.999 -99.9 -99.99 -9.99
2019/11/15 05:00 PST    2.88   2.99 -999 -999 -999 -99.9  65.3 1019.4 -9.9 -9.999 -99.9 -99.99 -9.99
2019/11/15 05:06 PST    2.94   3.11 -999 -999 -999 -99.9  65.3 1019.3 -9.9 -9.999 -99.9 -99.99 -9.99
2019/11/15 05:12 PST    3.00   3.21 -999 -999 -999 -99.9  65.3 1019.4 -9.9 -9.999 -99.9 -99.99 -9.99
2019/11/15 05:18 PST    3.06   3.29 -999 -999 -999 -99.9  65.3 1019.5 -9.9 -9.999 -99.9 -99.99 -9.99
2019/11/15 05:24 PST    3.13   3.35 -999 -999 -999 -99.9  65.3 1019.4 -9.9 -9.999 -99.9 -99.99 -9.99
2019/11/15 05:30 PST    3.20   3.36 -999 -999 -999 -99.9  65.3 1019.5 -9.9 -9.999 -99.9 -99.99 -9.99
2019/11/15 05:36 PST    3.27   3.43 -999 -999 -999 -99.9  65.3 1019.6 -9.9 -9.999 -99.9 -99.99 -9.99
2019/11/15 05:42 PST    3.34   3.49 -999 -999 -999 -99.9  65.1 1019.6 -9.9 -9.999 -99.9 -99.99 -9.99
2019/11/15 05:48 PST    3.41   3.60 -999 -999 -999 -99.9  65.1 1019.8 -9.9 -9.999 -99.9 -99.99 -9.99
2019/11/15 05:54 PST    3.49   3.67 -999 -999 -999 -99.9  65.1 1019.7 -9.9 -9.999 -99.9 -99.99 -9.99
2019/11/15 06:00 PST    3.57   3.77 -999 -999 -999 -99.9  65.1 1019.8 -9.9 -9.999 -99.9 -99.99 -9.99
2019/11/15 06:06 PST    3.65   3.82 -999 -999 -999 -99.9  65.1 1019.8 -9.9 -9.999 -99.9 -99.99 -9.99
2019/11/15 06:12 PST    3.73   3.91 -999 -999 -999 -99.9  65.1 1019.9 -9.9 -9.999 -99.9 -99.99 -9.99
2019/11/15 06:18 PST    3.82   3.96 -999 -999 -999 -99.9  65.1 1020.0 -9.9 -9.999 -99.9 -99.99 -9.99
2019/11/15 06:24 PST    3.90   3.99 -999 -999 -999 -99.9  65.1 1020.0 -9.9 -9.999 -99.9 -99.99 -9.99
2019/11/15 06:30 PST    3.99   4.06 -999 -999 -999 -99.9  65.1 1020.0 -9.9 -9.999 -99.9 -99.99 -9.99
2019/11/15 06:36 PST    4.08   4.18 -999 -999 -999 -99.9  65.3 1020.1 -9.9 -9.999 -99.9 -99.99 -9.99
2019/11/15 06:42 PST    4.16   4.29 -999 -999 -999 -99.9  65.3 1020.0 -9.9 -9.999 -99.9 -99.99 -9.99
2019/11/15 06:48 PST    4.25   4.40 -999 -999 -999 -99.9  65.3 1020.1 -9.9 -9.999 -99.9 -99.99 -9.99
2019/11/15 06:54 PST    4.34   4.50 -999 -999 -999 -99.9  65.3 1020.1 -9.9 -9.999 -99.9 -99.99 -9.99
2019/11/15 07:00 PST    4.43   4.61 -999 -999 -999 -99.9  65.3 1020.1 -9.9 -9.999 -99.9 -99.99 -9.99
2019/11/15 07:06 PST    4.52   4.65 -999 -999 -999 -99.9  65.3 1020.2 -9.9 -9.999 -99.9 -99.99 -9.99
2019/11/15 07:12 PST    4.60   4.75 -999 -999 -999 -99.9  65.3 1020.2 -9.9 -9.999 -99.9 -99.99 -9.99
2019/11/15 07:18 PST    4.69   4.82 -999 -999 -999 -99.9  65.3 1020.3 -9.9 -9.999 -99.9 -99.99 -9.99
2019/11/15 07:24 PST    4.77   4.88 -999 -999 -999 -99.9  65.3 1020.4 -9.9 -9.999 -99.9 -99.99 -9.99
2019/11/15 07:30 PST    4.86   4.99 -999 -999 -999 -99.9  65.3 1020.5 -9.9 -9.999 -99.9 -99.99 -9.99
2019/11/15 07:36 PST    4.94   5.13 -999 -999 -999 -99.9  65.3 1020.4 -9.9 -9.999 -99.9 -99.99 -9.99
2019/11/15 07:42 PST    5.02   5.21 -999 -999 -999 -99.9  65.3 1020.5 -9.9 -9.999 -99.9 -99.99 -9.99
2019/11/15 07:48 PST    5.10   5.28 -999 -999 -999 -99.9  65.3 1020.4 -9.9 -9.999 -99.9 -99.99 -9.99
2019/11/15 07:54 PST    5.18   5.35 -999 -999 -999 -99.9  65.3 1020.4 -9.9 -9.999 -99.9 -99.99 -9.99
2019/11/15 08:00 PST    5.25   5.43 -999 -999 -999 -99.9  65.3 1020.4 -9.9 -9.999 -99.9 -99.99 -9.99
2019/11/15 08:06 PST    5.33   5.48 -999 -999 -999 -99.9  65.3 1020.5 -9.9 -9.999 -99.9 -99.99 -9.99
2019/11/15 08:12 PST    5.40   5.56 -999 -999 -999 -99.9  65.3 1020.6 -9.9 -9.999 -99.9 -99.99 -9.99
2019/11/15 08:18 PST    5.46   5.67 -999 -999 -999 -99.9  65.3 1020.5 -9.9 -9.999 -99.9 -99.99 -9.99
2019/11/15 08:24 PST    5.52   5.72 -999 -999 -999 -99.9  65.3 1020.5 -9.9 -9.999 -99.9 -99.99 -9.99
2019/11/15 08:30 PST    5.58   5.79 -999 -999 -999 -99.9  65.3 1020.5 -9.9 -9.999 -99.9 -99.99 -9.99
2019/11/15 08:36 PST    5.64   5.86 -999 -999 -999 -99.9  65.3 1020.6 -9.9 -9.999 -99.9 -99.99 -9.99
2019/11/15 08:42 PST    5.69   5.90 -999 -999 -999 -99.9  65.3 1020.6 -9.9 -9.999 -99.9 -99.99 -9.99
2019/11/15 08:48 PST    5.74   5.90 -999 -999 -999 -99.9  65.3 1020.6 -9.9 -9.999 -99.9 -99.99 -9.99
2019/11/15 08:54 PST    5.79   5.91 -999 -999 -999 -99.9  65.3 1020.6 -9.9 -9.999 -99.9 -99.99 -9.99
2019/11/15 09:00 PST    5.83   5.97 -999 -999 -999 -99.9  65.3 1020.6 -9.9 -9.999 -99.9 -99.99 -9.99
2019/11/15 09:06 PST    5.86   6.05 -999 -999 -999 -99.9  65.1 1020.6 -9.9 -9.999 -99.9 -99.99 -9.99
2019/11/15 09:12 PST    5.90   6.12 -999 -999 -999 -99.9  65.1 1020.7 -9.9 -9.999 -99.9 -99.99 -9.99
2019/11/15 09:18 PST    5.92   6.11 -999 -999 -999 -99.9  65.1 1020.7 -9.9 -9.999 -99.9 -99.99 -9.99
2019/11/15 09:24 PST    5.95   6.12 -999 -999 -999 -99.9  65.1 1020.6 -9.9 -9.999 -99.9 -99.99 -9.99
2019/11/15 09:30 PST    5.96   6.13 -999 -999 -999 -99.9  65.1 1020.6 -9.9 -9.999 -99.9 -99.99 -9.99
2019/11/15 09:36 PST    5.98   6.13 -999 -999 -999 -99.9  65.1 1020.7 -9.9 -9.999 -99.9 -99.99 -9.99
2019/11/15 09:42 PST    5.98   6.13 -999 -999 -999 -99.9  65.1 1020.7 -9.9 -9.999 -99.9 -99.99 -9.99
2019/11/15 09:48 PST    5.99   6.11 -999 -999 -999 -99.9  65.1 1020.7 -9.9 -9.999 -99.9 -99.99 -9.99
2019/11/15 09:54 PST    5.98   6.13 -999 -999 -999 -99.9  65.1 1020.6 -9.9 -9.999 -99.9 -99.99 -9.99
2019/11/15 10:00 PST    5.98   6.15 -999 -999 -999 -99.9  65.1 1020.6 -9.9 -9.999 -99.9 -99.99 -9.99
2019/11/15 10:06 PST    5.96   6.18 -999 -999 -999 -99.9  65.1 1020.6 -9.9 -9.999 -99.9 -99.99 -9.99
2019/11/15 10:12 PST    5.95   6.16 -999 -999 -999 -99.9  65.1 1020.7 -9.9 -9.999 -99.9 -99.99 -9.99
2019/11/15 10:18 PST    5.92   6.12 -999 -999 -999 -99.9  65.1 1020.4 -9.9 -9.999 -99.9 -99.99 -9.99
2019/11/15 10:24 PST    5.90   6.07 -999 -999 -999 -99.9  65.1 1020.3 -9.9 -9.999 -99.9 -99.99 -9.99
2019/11/15 10:30 PST    5.86   6.06 -999 -999 -999 -99.9  65.1 1020.3 -9.9 -9.999 -99.9 -99.99 -9.99
2019/11/15 10:36 PST    5.82   6.03 -999 -999 -999 -99.9  65.1 1020.2 -9.9 -9.999 -99.9 -99.99 -9.99
2019/11/15 10:42 PST    5.78   5.96 -999 -999 -999 -99.9  65.1 1020.2 -9.9 -9.999 -99.9 -99.99 -9.99
2019/11/15 10:48 PST    5.73   5.87 -999 -999 -999 -99.9  65.1 1020.1 -9.9 -9.999 -99.9 -99.99 -9.99
2019/11/15 10:54 PST    5.68   5.81 -999 -999 -999 -99.9  65.1 1019.9 -9.9 -9.999 -99.9 -99.99 -9.99
2019/11/15 11:00 PST    5.62   5.74 -999 -999 -999 -99.9  65.1 1019.9 -9.9 -9.999 -99.9 -99.99 -9.99
2019/11/15 11:06 PST    5.55   5.68 -999 -999 -999 -99.9  65.1 1019.8 -9.9 -9.999 -99.9 -99.99 -9.99
2019/11/15 11:12 PST    5.48   5.59 -999 -999 -999 -99.9  65.1 1019.8 -9.9 -9.999 -99.9 -99.99 -9.99
2019/11/15 11:18 PST    5.41   5.50 -999 -999 -999 -99.9  65.1 1019.7 -9.9 -9.999 -99.9 -99.99 -9.99
2019/11/15 11:24 PST    5.33   5.43 -999 -999 -999 -99.9  65.3 1019.5 -9.9 -9.999 -99.9 -99.99 -9.99
2019/11/15 11:30 PST    5.25   5.42 -999 -999 -999 -99.9  65.3 1019.1 -9.9 -9.999 -99.9 -99.99 -9.99
2019/11/15 11:36 PST    5.16   5.35 -999 -999 -999 -99.9  65.3 1019.0 -9.9 -9.999 -99.9 -99.99 -9.99
2019/11/15 11:42 PST    5.07   5.24 -999 -999 -999 -99.9  65.1 1018.8 -9.9 -9.999 -99.9 -99.99 -9.99
2019/11/15 11:48 PST    4.98   5.10 -999 -999 -999 -99.9  65.1 1018.7 -9.9 -9.999 -99.9 -99.99 -9.99
2019/11/15 11:54 PST    4.88   4.99 -999 -999 -999 -99.9  65.3 1018.7 -9.9 -9.999 -99.9 -99.99 -9.99
2019/11/15 12:00 PST    4.78   4.89 -999 -999 -999 -99.9  65.3 1018.8 -9.9 -9.999 -99.9 -99.99 -9.99
2019/11/15 12:06 PST    4.67   4.82 -999 -999 -999 -99.9  65.3 1018.7 -9.9 -9.999 -99.9 -99.99 -9.99
2019/11/15 12:12 PST    4.56   4.71 -999 -999 -999 -99.9  65.3 1018.4 -9.9 -9.999 -99.9 -99.99 -9.99
2019/11/15 12:18 PST    4.45   4.61 -999 -999 -999 -99.9  65.3 1018.4 -9.9 -9.999 -99.9 -99.99 -9.99
2019/11/15 12:24 PST    4.33   4.51 -999 -999 -999 -99.9  65.3 1018.3 -9.9 -9.999 -99.9 -99.99 -9.99
2019/11/15 12:30 PST    4.21   4.43 -999 -999 -999 -99.9  65.3 1018.1 -9.9 -9.999 -99.9 -99.99 -9.99
2019/11/15 12:36 PST    4.09   4.28 -999 -999 -999 -99.9  65.3 1017.8 -9.9 -9.999 -99.9 -99.99 -9.99
2019/11/15 12:42 PST    3.97   4.09 -999 -999 -999 -99.9  65.3 1017.6 -9.9 -9.999 -99.9 -99.99 -9.99
2019/11/15 12:48 PST    3.85   3.93 -999 -999 -999 -99.9  65.3 1017.2 -9.9 -9.999 -99.9 -99.99 -9.99
2019/11/15 12:54 PST    3.72   3.85 -999 -999 -999 -99.9  65.3 1017.1 -9.9 -9.999 -99.9 -99.99 -9.99
2019/11/15 13:00 PST    3.59   3.72 -999 -999 -999 -99.9  65.3 1017.1 -9.9 -9.999 -99.9 -99.99 -9.99
2019/11/15 13:06 PST    3.46   3.59 -999 -999 -999 -99.9  65.3 1017.3 -9.9 -9.999 -99.9 -99.99 -9.99
2019/11/15 13:12 PST    3.33   3.48 -999 -999 -999 -99.9  65.3 1017.3 -9.9 -9.999 -99.9 -99.99 -9.99
2019/11/15 13:18 PST    3.20   3.40 -999 -999 -999 -99.9  65.3 1017.0 -9.9 -9.999 -99.9 -99.99 -9.99
2019/11/15 13:24 PST    3.07   3.23 -999 -999 -999 -99.9  65.5 1016.9 -9.9 -9.999 -99.9 -99.99 -9.99
2019/11/15 13:30 PST    2.94   3.11 -999 -999 -999 -99.9  65.5 1016.9 -9.9 -9.999 -99.9 -99.99 -9.99
2019/11/15 13:36 PST    2.81   2.94 -999 -999 -999 -99.9  65.5 1017.0 -9.9 -9.999 -99.9 -99.99 -9.99
2019/11/15 13:42 PST    2.67   2.74 -999 -999 -999 -99.9  65.5 1017.1 -9.9 -9.999 -99.9 -99.99 -9.99
2019/11/15 13:48 PST    2.54   2.56 -999 -999 -999 -99.9  65.5 1017.1 -9.9 -9.999 -99.9 -99.99 -9.99
2019/11/15 13:54 PST    2.41   2.49 -999 -999 -999 -99.9  65.5 1017.1 -9.9 -9.999 -99.9 -99.99 -9.99
2019/11/15 14:00 PST    2.28   2.39 -999 -999 -999 -99.9  65.7 1017.0 -9.9 -9.999 -99.9 -99.99 -9.99
2019/11/15 14:06 PST    2.15   2.32 -999 -999 -999 -99.9  65.5 1016.9 -9.9 -9.999 -99.9 -99.99 -9.99
2019/11/15 14:12 PST    2.03   2.21 -999 -999 -999 -99.9  65.5 1016.9 -9.9 -9.999 -99.9 -99.99 -9.99
2019/11/15 14:18 PST    1.90   2.03 -999 -999 -999 -99.9  65.7 1016.8 -9.9 -9.999 -99.9 -99.99 -9.99
2019/11/15 14:24 PST    1.78   1.92 -999 -999 -999 -99.9  65.7 1016.7 -9.9 -9.999 -99.9 -99.99 -9.99
2019/11/15 14:30 PST    1.66   1.82 -999 -999 -999 -99.9  65.5 1016.7 -9.9 -9.999 -99.9 -99.99 -9.99
2019/11/15 14:36 PST    1.54   1.65 -999 -999 -999 -99.9  65.7 1016.7 -9.9 -9.999 -99.9 -99.99 -9.99
2019/11/15 14:42 PST    1.42   1.48 -999 -999 -999 -99.9  65.7 1016.7 -9.9 -9.999 -99.9 -99.99 -9.99
2019/11/15 14:48 PST    1.31   1.37 -999 -999 -999 -99.9  65.7 1016.7 -9.9 -9.999 -99.9 -99.99 -9.99
2019/11/15 14:54 PST    1.20   1.23 -999 -999 -999 -99.9  65.7 1016.8 -9.9 -9.999 -99.9 -99.99 -9.99
2019/11/15 15:00 PST    1.09   1.15 -999 -999 -999 -99.9  65.7 1016.8 -9.9 -9.999 -99.9 -99.99 -9.99
2019/11/15 15:06 PST    0.99   1.09 -999 -999 -999 -99.9  65.7 1016.7 -9.9 -9.999 -99.9 -99.99 -9.99
2019/11/15 15:12 PST    0.89   1.03 -999 -999 -999 -99.9  65.7 1016.5 -9.9 -9.999 -99.9 -99.99 -9.99
2019/11/15 15:18 PST    0.79   0.91 -999 -999 -999 -99.9  65.7 1016.4 -9.9 -9.999 -99.9 -99.99 -9.99
2019/11/15 15:24 PST    0.70   0.84 -999 -999 -999 -99.9  65.7 1016.3 -9.9 -9.999 -99.9 -99.99 -9.99
2019/11/15 15:30 PST    0.61   0.75 -999 -999 -999 -99.9  65.7 1016.2 -9.9 -9.999 -99.9 -99.99 -9.99
2019/11/15 15:36 PST    0.53   0.70 -999 -999 -999 -99.9  65.7 1016.1 -9.9 -9.999 -99.9 -99.99 -9.99
2019/11/15 15:42 PST    0.45   0.62 -999 -999 -999 -99.9  65.7 1016.2 -9.9 -9.999 -99.9 -99.99 -9.99
2019/11/15 15:48 PST    0.37   0.60 -999 -999 -999 -99.9  65.7 1016.3 -9.9 -9.999 -99.9 -99.99 -9.99
2019/11/15 15:54 PST    0.30   0.51 -999 -999 -999 -99.9  65.7 1016.3 -9.9 -9.999 -99.9 -99.99 -9.99
2019/11/15 16:00 PST    0.23   0.43 -999 -999 -999 -99.9  65.7 1016.3 -9.9 -9.999 -99.9 -99.99 -9.99
2019/11/15 16:06 PST    0.17   0.33 -999 -999 -999 -99.9  65.5 1016.3 -9.9 -9.999 -99.9 -99.99 -9.99
2019/11/15 16:12 PST    0.11   0.26 -999 -999 -999 -99.9  65.5 1016.2 -9.9 -9.999 -99.9 -99.99 -9.99
2019/11/15 16:18 PST    0.06   0.13 -999 -999 -999 -99.9  65.5 1016.2 -9.9 -9.999 -99.9 -99.99 -9.99
2019/11/15 16:24 PST    0.02   0.04 -999 -999 -999 -99.9  65.5 1016.0 -9.9 -9.999 -99.9 -99.99 -9.99
2019/11/15 16:30 PST   -0.03   0.03 -999 -999 -999 -99.9  65.5 1016.0 -9.9 -9.999 -99.9 -99.99 -9.99
2019/11/15 16:36 PST   -0.06   0.09 -999 -999 -999 -99.9  65.5 1016.1 -9.9 -9.999 -99.9 -99.99 -9.99
2019/11/15 16:42 PST   -0.10   0.10 -999 -999 -999 -99.9  65.5 1016.1 -9.9 -9.999 -99.9 -99.99 -9.99
2019/11/15 16:48 PST   -0.12   0.06 -999 -999 -999 -99.9  65.7 1016.1 -9.9 -9.999 -99.9 -99.99 -9.99
2019/11/15 16:54 PST   -0.14   0.06 -999 -999 -999 -99.9  65.5 1016.1 -9.9 -9.999 -99.9 -99.99 -9.99
2019/11/15 17:00 PST   -0.16   0.04 -999 -999 -999 -99.9  65.5 1016.1 -9.9 -9.999 -99.9 -99.99 -9.99
2019/11/15 17:06 PST   -0.17   0.06 -999 -999 -999 -99.9  65.5 1016.2 -9.9 -9.999 -99.9 -99.99 -9.99
2019/11/15 17:12 PST   -0.18  -0.00 -999 -999 -999 -99.9  65.5 1016.2 -9.9 -9.999 -99.9 -99.99 -9.99
2019/11/15 17:18 PST   -0.18   0.00 -999 -999 -999 -99.9  65.5 1016.2 -9.9 -9.999 -99.9 -99.99 -9.99
2019/11/15 17:24 PST   -0.18  -0.03 -999 -999 -999 -99.9  65.5 1016.2 -9.9 -9.999 -99.9 -99.99 -9.99
2019/11/15 17:30 PST   -0.17  -0.00 -999 -999 -999 -99.9  65.5 1016.2 -9.9 -9.999 -99.9 -99.99 -9.99
2019/11/15 17:36 PST   -0.15  -0.00 -999 -999 -999 -99.9  65.5 1016.2 -9.9 -9.999 -99.9 -99.99 -9.99
2019/11/15 17:42 PST   -0.13   0.06 -999 -999 -999 -99.9  65.5 1016.1 -9.9 -9.999 -99.9 -99.99 -9.99
2019/11/15 17:48 PST   -0.11   0.08 -999 -999 -999 -99.9  65.5 1016.1 -9.9 -9.999 -99.9 -99.99 -9.99
2019/11/15 17:54 PST   -0.08   0.09 -999 -999 -999 -99.9  65.5 1016.1 -9.9 -9.999 -99.9 -99.99 -9.99
2019/11/15 18:00 PST   -0.05   0.12 -999 -999 -999 -99.9  65.5 1016.1 -9.9 -9.999 -99.9 -99.99 -9.99
2019/11/15 18:06 PST   -0.02   0.16 -999 -999 -999 -99.9  65.5 1016.0 -9.9 -9.999 -99.9 -99.99 -9.99
2019/11/15 18:12 PST    0.02   0.21 -999 -999 -999 -99.9  65.5 1016.1 -9.9 -9.999 -99.9 -99.99 -9.99
2019/11/15 18:18 PST    0.07   0.29 -999 -999 -999 -99.9  65.5 1016.1 -9.9 -9.999 -99.9 -99.99 -9.99
2019/11/15 18:24 PST    0.12   0.26 -999 -999 -999 -99.9  65.5 1016.1 -9.9 -9.999 -99.9 -99.99 -9.99
2019/11/15 18:30 PST    0.17   0.35 -999 -999 -999 -99.9  65.5 1016.1 -9.9 -9.999 -99.9 -99.99 -9.99
2019/11/15 18:36 PST    0.22   0.35 -999 -999 -999 -99.9  65.5 1016.1 -9.9 -9.999 -99.9 -99.99 -9.99
2019/11/15 18:42 PST    0.28   0.43 -999 -999 -999 -99.9  65.5 1016.2 -9.9 -9.999 -99.9 -99.99 -9.99
2019/11/15 18:48 PST    0.35   0.42 -999 -999 -999 -99.9  65.5 1016.2 -9.9 -9.999 -99.9 -99.99 -9.99
2019/11/15 18:54 PST    0.41   0.47 -999 -999 -999 -99.9  65.5 1016.2 -9.9 -9.999 -99.9 -99.99 -9.99
2019/11/15 19:00 PST    0.48   0.59 -999 -999 -999 -99.9  65.5 1016.3 -9.9 -9.999 -99.9 -99.99 -9.99
2019/11/15 19:06 PST    0.55   0.79 -999 -999 -999 -99.9  65.5 1016.3 -9.9 -9.999 -99.9 -99.99 -9.99
2019/11/15 19:12 PST    0.62   0.89 -999 -999 -999 -99.9  65.5 1016.2 -9.9 -9.999 -99.9 -99.99 -9.99
2019/11/15 19:18 PST    0.70   0.94 -999 -999 -999 -99.9  65.5 1016.1 -9.9 -9.999 -99.9 -99.99 -9.99
2019/11/15 19:24 PST    0.78   1.02 -999 -999 -999 -99.9  65.5 1016.2 -9.9 -9.999 -99.9 -99.99 -9.99
2019/11/15 19:30 PST    0.86   1.09 -999 -999 -999 -99.9  65.5 1016.2 -9.9 -9.999 -99.9 -99.99 -9.99
2019/11/15 19:36 PST    0.94   1.18 -999 -999 -999 -99.9  65.5 1016.2 -9.9 -9.999 -99.9 -99.99 -9.99
2019/11/15 19:42 PST    1.02   1.23 -999 -999 -999 -99.9  65.5 1016.3 -9.9 -9.999 -99.9 -99.99 -9.99
2019/11/15 19:48 PST    1.10   1.31 -999 -999 -999 -99.9  65.5 1016.2 -9.9 -9.999 -99.9 -99.99 -9.99
2019/11/15 19:54 PST    1.19   1.37 -999 -999 -999 -99.9  65.5 1016.3 -9.9 -9.999 -99.9 -99.99 -9.99
2019/11/15 20:00 PST    1.27   1.44 -999 -999 -999 -99.9  65.5 1016.3 -9.9 -9.999 -99.9 -99.99 -9.99
2019/11/15 20:06 PST    1.36   1.53 -999 -999 -999 -99.9  65.5 1016.3 -9.9 -9.999 -99.9 -99.99 -9.99
2019/11/15 20:12 PST    1.45   1.66 -999 -999 -999 -99.9  65.5 1016.4 -9.9 -9.999 -99.9 -99.99 -9.99
2019/11/15 20:18 PST    1.53   1.74 -999 -999 -999 -99.9  65.5 1016.4 -9.9 -9.999 -99.9 -99.99 -9.99
2019/11/15 20:24 PST    1.62   1.82 -999 -999 -999 -99.9  65.5 1016.4 -9.9 -9.999 -99.9 -99.99 -9.99
2019/11/15 20:30 PST    1.71   1.87 -999 -999 -999 -99.9  65.5 1016.4 -9.9 -9.999 -99.9 -99.99 -9.99
2019/11/15 20:36 PST    1.80   1.97 -999 -999 -999 -99.9  65.5 1016.5 -9.9 -9.999 -99.9 -99.99 -9.99
2019/11/15 20:42 PST    1.88   2.06 -999 -999 -999 -99.9  65.3 1016.4 -9.9 -9.999 -99.9 -99.99 -9.99
2019/11/15 20:48 PST    1.97   2.13 -999 -999 -999 -99.9  65.3 1016.4 -9.9 -9.999 -99.9 -99.99 -9.99
2019/11/15 20:54 PST    2.05   2.20 -999 -999 -999 -99.9  65.3 1016.5 -9.9 -9.999 -99.9 -99.99 -9.99
2019/11/15 21:00 PST    2.14   2.27 -999 -999 -999 -99.9  65.3 1016.5 -9.9 -9.999 -99.9 -99.99 -9.99
2019/11/15 21:06 PST    2.22   2.33 -999 -999 -999 -99.9  65.3 1016.5 -9.9 -9.999 -99.9 -99.99 -9.99
2019/11/15 21:12 PST    2.30   2.43 -999 -999 -999 -99.9  65.3 1016.4 -9.9 -9.999 -99.9 -99.99 -9.99
2019/11/15 21:18 PST    2.38   2.53 -999 -999 -999 -99.9  65.3 1016.5 -9.9 -9.999 -99.9 -99.99 -9.99
2019/11/15 21:24 PST    2.46   2.63 -999 -999 -999 -99.9  65.3 1016.5 -9.9 -9.999 -99.9 -99.99 -9.99
2019/11/15 21:30 PST    2.53   2.75 -999 -999 -999 -99.9  65.3 1016.5 -9.9 -9.999 -99.9 -99.99 -9.99
2019/11/15 21:36 PST    2.60   2.82 -999 -999 -999 -99.9  65.3 1016.7 -9.9 -9.999 -99.9 -99.99 -9.99
2019/11/15 21:42 PST    2.68   2.88 -999 -999 -999 -99.9  65.3 1016.8 -9.9 -9.999 -99.9 -99.99 -9.99
2019/11/15 21:48 PST    2.74   2.96 -999 -999 -999 -99.9  65.3 1016.8 -9.9 -9.999 -99.9 -99.99 -9.99
2019/11/15 21:54 PST    2.81   3.03 -999 -999 -999 -99.9  65.3 1016.7 -9.9 -9.999 -99.9 -99.99 -9.99
2019/11/15 22:00 PST    2.87   3.04 -999 -999 -999 -99.9  65.1 1016.6 -9.9 -9.999 -99.9 -99.99 -9.99
2019/11/15 22:06 PST    2.94   3.04 -999 -999 -999 -99.9  65.1 1016.6 -9.9 -9.999 -99.9 -99.99 -9.99
2019/11/15 22:12 PST    2.99   3.09 -999 -999 -999 -99.9  65.1 1016.6 -9.9 -9.999 -99.9 -99.99 -9.99
2019/11/15 22:18 PST    3.05   3.18 -999 -999 -999 -99.9  65.1 1016.5 -9.9 -9.999 -99.9 -99.99 -9.99
2019/11/15 22:24 PST    3.10   3.32 -999 -999 -999 -99.9  65.1 1016.5 -9.9 -9.999 -99.9 -99.99 -9.99
2019/11/15 22:30 PST    3.15   3.40 -999 -999 -999 -99.9  65.1 1016.6 -9.9 -9.999 -99.9 -99.99 -9.99
2019/11/15 22:36 PST    3.20   3.45 -999 -999 -999 -99.9  65.1 1016.5 -9.9 -9.999 -99.9 -99.99 -9.99
2019/11/15 22:42 PST    3.24   3.48 -999 -999 -999 -99.9  64.9 1016.5 -9.9 -9.999 -99.9 -99.99 -9.99
2019/11/15 22:48 PST    3.28   3.53 -999 -999 -999 -99.9  64.9 1016.4 -9.9 -9.999 -99.9 -99.99 -9.99
2019/11/15 22:54 PST    3.32   3.59 -999 -999 -999 -99.9  64.9 1016.3 -9.9 -9.999 -99.9 -99.99 -9.99
2019/11/15 23:00 PST    3.36   3.61 -999 -999 -999 -99.9  65.1 1016.4 -9.9 -9.999 -99.9 -99.99 -9.99
2019/11/15 23:06 PST    3.39   3.62 -999 -999 -999 -99.9  65.1 1016.4 -9.9 -9.999 -99.9 -99.99 -9.99
2019/11/15 23:12 PST    3.42   3.67 -999 -999 -999 -99.9  65.1 1016.3 -9.9 -9.999 -99.9 -99.99 -9.99
2019/11/15 23:18 PST    3.44   3.70 -999 -999 -999 -99.9  65.1 1016.3 -9.9 -9.999 -99.9 -99.99 -9.99
2019/11/15 23:24 PST    3.46   3.77 -999 -999 -999 -99.9  65.3 1016.3 -9.9 -9.999 -99.9 -99.99 -9.99
2019/11/15 23:30 PST    3.48   3.82 -999 -999 -999 -99.9  65.3 1016.3 -9.9 -9.999 -99.9 -99.99 -9.99
2019/11/15 23:36 PST    3.50   3.77 -999 -999 -999 -99.9  65.3 1016.3 -9.9 -9.999 -99.9 -99.99 -9.99
2019/11/15 23:42 PST    3.51   3.73 -999 -999 -999 -99.9  65.3 1016.3 -9.9 -9.999 -99.9 -99.99 -9.99
2019/11/15 23:48 PST    3.52   3.72 -999 -999 -999 -99.9  65.3 1016.3 -9.9 -9.999 -99.9 -99.99 -9.99
2019/11/15 23:54 PST    3.53   3.72 -999 -999 -999 -99.9  65.3 1016.2 -9.9 -9.999 -99.9 -99.99 -9.99
2019/11/16 00:00 PST    3.53   3.74 -999 -999 -999 -99.9  65.3 1016.3 -9.9 -9.999 -99.9 -99.99 -9.99
2019/11/16 00:06 PST    3.53   3.77 -999 -999 -999 -99.9  65.3 1016.3 -9.9 -9.999 -99.9 -99.99 -9.99
2019/11/16 00:12 PST    3.53   3.78 -999 -999 -999 -99.9  65.3 1016.3 -9.9 -9.999 -99.9 -99.99 -9.99
2019/11/16 00:18 PST    3.52   3.79 -999 -999 -999 -99.9  65.1 1016.3 -9.9 -9.999 -99.9 -99.99 -9.99
2019/11/16 00:24 PST    3.52   3.84 -999 -999 -999 -99.9  65.1 1016.4 -9.9 -9.999 -99.9 -99.99 -9.99
2019/11/16 00:30 PST    3.51   3.83 -999 -999 -999 -99.9  65.1 1016.3 -9.9 -9.999 -99.9 -99.99 -9.99
2019/11/16 00:36 PST    3.50   3.77 -999 -999 -999 -99.9  65.1 1016.2 -9.9 -9.999 -99.9 -99.99 -9.99
2019/11/16 00:42 PST    3.48   3.73 -999 -999 -999 -99.9  65.1 1016.1 -9.9 -9.999 -99.9 -99.99 -9.99
2019/11/16 00:48 PST    3.47   3.69 -999 -999 -999 -99.9  65.1 1016.1 -9.9 -9.999 -99.9 -99.99 -9.99
2019/11/16 00:54 PST    3.45   3.68 -999 -999 -999 -99.9  65.1 1016.1 -9.9 -9.999 -99.9 -99.99 -9.99
2019/11/16 01:00 PST    3.43   3.66 -999 -999 -999 -99.9  65.1 1016.1 -9.9 -9.999 -99.9 -99.99 -9.99
2019/11/16 01:06 PST    3.41   3.66 -999 -999 -999 -99.9  65.1 1016.1 -9.9 -9.999 -99.9 -99.99 -9.99
2019/11/16 01:12 PST    3.38   3.61 -999 -999 -999 -99.9  64.9 1016.3 -9.9 -9.999 -99.9 -99.99 -9.99
2019/11/16 01:18 PST    3.36   3.57 -999 -999 -999 -99.9  64.9 1016.3 -9.9 -9.999 -99.9 -99.99 -9.99
2019/11/16 01:24 PST    3.34   3.59 -999 -999 -999 -99.9  64.9 1016.3 -9.9 -9.999 -99.9 -99.99 -9.99
2019/11/16 01:30 PST    3.31   3.57 -999 -999 -999 -99.9  64.9 1016.2 -9.9 -9.999 -99.9 -99.99 -9.99
2019/11/16 01:36 PST    3.28   3.54 -999 -999 -999 -99.9  64.9 1016.2 -9.9 -9.999 -99.9 -99.99 -9.99
2019/11/16 01:42 PST    3.25   3.51 -999 -999 -999 -99.9  64.9 1016.1 -9.9 -9.999 -99.9 -99.99 -9.99
2019/11/16 01:48 PST    3.23   3.46 -999 -999 -999 -99.9  64.9 1016.0 -9.9 -9.999 -99.9 -99.99 -9.99
2019/11/16 01:54 PST    3.20   3.43 -999 -999 -999 -99.9  64.9 1015.9 -9.9 -9.999 -99.9 -99.99 -9.99
2019/11/16 02:00 PST    3.17   3.42 -999 -999 -999 -99.9  64.9 1015.9 -9.9 -9.999 -99.9 -99.99 -9.99
2019/11/16 02:06 PST    3.14   3.43 -999 -999 -999 -99.9  64.9 1015.8 -9.9 -9.999 -99.9 -99.99 -9.99
2019/11/16 02:12 PST    3.11   3.42 -999 -999 -999 -99.9  64.9 1015.7 -9.9 -9.999 -99.9 -99.99 -9.99
2019/11/16 02:18 PST    3.08   3.38 -999 -999 -999 -99.9  64.9 1015.6 -9.9 -9.999 -99.9 -99.99 -9.99
2019/11/16 02:24 PST    3.05   3.36 -999 -999 -999 -99.9  64.9 1015.6 -9.9 -9.999 -99.9 -99.99 -9.99
2019/11/16 02:30 PST    3.02   3.37 -999 -999 -999 -99.9  65.1 1015.5 -9.9 -9.999 -99.9 -99.99 -9.99
2019/11/16 02:36 PST    3.00   3.36 -999 -999 -999 -99.9  65.1 1015.4 -9.9 -9.999 -99.9 -99.99 -9.99
2019/11/16 02:42 PST    2.97   3.32 -999 -999 -999 -99.9  65.1 1015.4 -9.9 -9.999 -99.9 -99.99 -9.99
2019/11/16 02:48 PST    2.95   3.25 -999 -999 -999 -99.9  65.1 1015.3 -9.9 -9.999 -99.9 -99.99 -9.99
2019/11/16 02:54 PST    2.92   3.18 -999 -999 -999 -99.9  65.1 1015.2 -9.9 -9.999 -99.9 -99.99 -9.99
2019/11/16 03:00 PST    2.90   3.12 -999 -999 -999 -99.9  65.1 1015.2 -9.9 -9.999 -99.9 -99.99 -9.99
2019/11/16 03:06 PST    2.88   3.14 -999 -999 -999 -99.9  65.1 1015.3 -9.9 -9.999 -99.9 -99.99 -9.99
2019/11/16 03:12 PST    2.86   3.15 -999 -999 -999 -99.9  65.1 1015.3 -9.9 -9.999 -99.9 -99.99 -9.99
2019/11/16 03:18 PST    2.84   3.13 -999 -999 -999 -99.9  65.1 1015.3 -9.9 -9.999 -99.9 -99.99 -9.99
2019/11/16 03:24 PST    2.83   3.11 -999 -999 -999 -99.9  65.1 1015.4 -9.9 -9.999 -99.9 -99.99 -9.99
2019/11/16 03:30 PST    2.81   3.09 -999 -999 -999 -99.9  65.1 1015.2 -9.9 -9.999 -99.9 -99.99 -9.99
2019/11/16 03:36 PST    2.80   3.11 -999 -999 -999 -99.9  65.1 1015.2 -9.9 -9.999 -99.9 -99.99 -9.99
2019/11/16 03:42 PST    2.79   3.09 -999 -999 -999 -99.9  65.1 1015.1 -9.9 -9.999 -99.9 -99.99 -9.99
2019/11/16 03:48 PST    2.78   3.06 -999 -999 -999 -99.9  65.1 1015.2 -9.9 -9.999 -99.9 -99.99 -9.99
2019/11/16 03:54 PST    2.78   3.04 -999 -999 -999 -99.9  65.1 1015.1 -9.9 -9.999 -99.9 -99.99 -9.99
2019/11/16 04:00 PST    2.78   3.01 -999 -999 -999 -99.9  65.1 1015.1 -9.9 -9.999 -99.9 -99.99 -9.99
2019/11/16 04:06 PST    2.78   3.02 -999 -999 -999 -99.9  65.1 1015.0 -9.9 -9.999 -99.9 -99.99 -9.99
2019/11/16 04:12 PST    2.78   3.07 -999 -999 -999 -99.9  65.1 1015.0 -9.9 -9.999 -99.9 -99.99 -9.99
2019/11/16 04:18 PST    2.78   3.07 -999 -999 -999 -99.9  65.1 1015.0 -9.9 -9.999 -99.9 -99.99 -9.99
2019/11/16 04:24 PST    2.79   3.06 -999 -999 -999 -99.9  65.1 1015.1 -9.9 -9.999 -99.9 -99.99 -9.99
2019/11/16 04:30 PST    2.80   3.10 -999 -999 -999 -99.9  65.1 1015.1 -9.9 -9.999 -99.9 -99.99 -9.99
2019/11/16 04:36 PST    2.82   3.13 -999 -999 -999 -99.9  65.1 1015.2 -9.9 -9.999 -99.9 -99.99 -9.99
2019/11/16 04:42 PST    2.83   3.18 -999 -999 -999 -99.9  65.1 1015.3 -9.9 -9.999 -99.9 -99.99 -9.99
2019/11/16 04:48 PST    2.85   3.21 -999 -999 -999 -99.9  65.1 1015.3 -9.9 -9.999 -99.9 -99.99 -9.99
2019/11/16 04:54 PST    2.88   3.19 -999 -999 -999 -99.9  65.1 1015.3 -9.9 -9.999 -99.9 -99.99 -9.99
2019/11/16 05:00 PST    2.90   3.16 -999 -999 -999 -99.9  65.1 1015.3 -9.9 -9.999 -99.9 -99.99 -9.99
2019/11/16 05:06 PST    2.93   3.22 -999 -999 -999 -99.9  65.1 1015.2 -9.9 -9.999 -99.9 -99.99 -9.99
2019/11/16 05:12 PST    2.96   3.21 -999 -999 -999 -99.9  64.9 1015.1 -9.9 -9.999 -99.9 -99.99 -9.99
2019/11/16 05:18 PST    3.00   3.25 -999 -999 -999 -99.9  64.9 1015.1 -9.9 -9.999 -99.9 -99.99 -9.99
2019/11/16 05:24 PST    3.03   3.31 -999 -999 -999 -99.9  64.9 1015.2 -9.9 -9.999 -99.9 -99.99 -9.99
2019/11/16 05:30 PST    3.07   3.38 -999 -999 -999 -99.9  65.1 1015.2 -9.9 -9.999 -99.9 -99.99 -9.99
2019/11/16 05:36 PST    3.12   3.44 -999 -999 -999 -99.9  65.1 1015.2 -9.9 -9.999 -99.9 -99.99 -9.99
2019/11/16 05:42 PST    3.16   3.54 -999 -999 -999 -99.9  64.9 1015.2 -9.9 -9.999 -99.9 -99.99 -9.99
2019/11/16 05:48 PST    3.21   3.50 -999 -999 -999 -99.9  64.9 1015.2 -9.9 -9.999 -99.9 -99.99 -9.99
2019/11/16 05:54 PST    3.26   3.51 -999 -999 -999 -99.9  64.9 1015.3 -9.9 -9.999 -99.9 -99.99 -9.99
2019/11/16 06:00 PST    3.31   3.55 -999 -999 -999 -99.9  64.9 1015.3 -9.9 -9.999 -99.9 -99.99 -9.99
2019/11/16 06:06 PST    3.37   3.63 -999 -999 -999 -99.9  64.9 1015.4 -9.9 -9.999 -99.9 -99.99 -9.99
2019/11/16 06:12 PST    3.42   3.70 -999 -999 -999 -99.9  64.9 1015.4 -9.9 -9.999 -99.9 -99.99 -9.99
2019/11/16 06:18 PST    3.48   3.78 -999 -999 -999 -99.9  64.9 1015.4 -9.9 -9.999 -99.9 -99.99 -9.99
2019/11/16 06:24 PST    3.54   3.87 -999 -999 -999 -99.9  64.9 1015.5 -9.9 -9.999 -99.9 -99.99 -9.99
2019/11/16 06:30 PST    3.61   3.96 -999 -999 -999 -99.9  64.9 1015.5 -9.9 -9.999 -99.9 -99.99 -9.99
2019/11/16 06:36 PST    3.67   4.00 -999 -999 -999 -99.9  64.9 1015.6 -9.9 -9.999 -99.9 -99.99 -9.99
2019/11/16 06:42 PST    3.74   4.08 -999 -999 -999 -99.9  64.9 1015.6 -9.9 -9.999 -99.9 -99.99 -9.99
2019/11/16 06:48 PST    3.81   4.13 -999 -999 -999 -99.9  64.9 1015.6 -9.9 -9.999 -99.9 -99.99 -9.99
2019/11/16 06:54 PST    3.88   4.17 -999 -999 -999 -99.9  64.9 1015.8 -9.9 -9.999 -99.9 -99.99 -9.99
2019/11/16 07:00 PST    3.95   4.22 -999 -999 -999 -99.9  64.9 1015.8 -9.9 -9.999 -99.9 -99.99 -9.99
2019/11/16 07:06 PST    4.02   4.33 -999 -999 -999 -99.9  64.9 1015.9 -9.9 -9.999 -99.9 -99.99 -9.99
2019/11/16 07:12 PST    4.09   4.39 -999 -999 -999 -99.9  64.9 1015.9 -9.9 -9.999 -99.9 -99.99 -9.99
2019/11/16 07:18 PST    4.16   4.52 -999 -999 -999 -99.9  64.9 1015.9 -9.9 -9.999 -99.9 -99.99 -9.99
2019/11/16 07:24 PST    4.24   4.62 -999 -999 -999 -99.9  64.9 1015.9 -9.9 -9.999 -99.9 -99.99 -9.99
2019/11/16 07:30 PST    4.31   4.66 -999 -999 -999 -99.9  64.9 1015.9 -9.9 -9.999 -99.9 -99.99 -9.99
2019/11/16 07:36 PST    4.38   4.70 -999 -999 -999 -99.9  64.9 1015.9 -9.9 -9.999 -99.9 -99.99 -9.99
2019/11/16 07:42 PST    4.46   4.72 -999 -999 -999 -99.9  64.9 1015.9 -9.9 -9.999 -99.9 -99.99 -9.99
2019/11/16 07:48 PST    4.53   4.77 -999 -999 -999 -99.9  64.9 1015.9 -9.9 -9.999 -99.9 -99.99 -9.99
2019/11/16 07:54 PST    4.60   4.85 -999 -999 -999 -99.9  64.9 1015.9 -9.9 -9.999 -99.9 -99.99 -9.99
2019/11/16 08:00 PST    4.67   4.91 -999 -999 -999 -99.9  64.9 1015.9 -9.9 -9.999 -99.9 -99.99 -9.99
2019/11/16 08:06 PST    4.75   5.02 -999 -999 -999 -99.9  64.8 1015.9 -9.9 -9.999 -99.9 -99.99 -9.99
2019/11/16 08:12 PST    4.82   5.09 -999 -999 -999 -99.9  64.8 1016.0 -9.9 -9.999 -99.9 -99.99 -9.99
2019/11/16 08:18 PST    4.88   5.18 -999 -999 -999 -99.9  64.8 1016.0 -9.9 -9.999 -99.9 -99.99 -9.99
2019/11/16 08:24 PST    4.95   5.25 -999 -999 -999 -99.9  64.8 1016.1 -9.9 -9.999 -99.9 -99.99 -9.99
2019/11/16 08:30 PST    5.02   5.35 -999 -999 -999 -99.9  64.6 1016.1 -9.9 -9.999 -99.9 -99.99 -9.99
2019/11/16 08:36 PST    5.08   5.41 -999 -999 -999 -99.9  64.6 1016.2 -9.9 -9.999 -99.9 -99.99 -9.99
2019/11/16 08:42 PST    5.15   5.46 -999 -999 -999 -99.9  64.6 1016.2 -9.9 -9.999 -99.9 -99.99 -9.99
2019/11/16 08:48 PST    5.21   5.51 -999 -999 -999 -99.9  64.6 1016.2 -9.9 -9.999 -99.9 -99.99 -9.99
2019/11/16 08:54 PST    5.26   5.57 -999 -999 -999 -99.9  64.6 1016.2 -9.9 -9.999 -99.9 -99.99 -9.99
2019/11/16 09:00 PST    5.32   5.64 -999 -999 -999 -99.9  64.6 1016.0 -9.9 -9.999 -99.9 -99.99 -9.99
2019/11/16 09:06 PST    5.37   5.67 -999 -999 -999 -99.9  64.6 1016.1 -9.9 -9.999 -99.9 -99.99 -9.99
2019/11/16 09:12 PST    5.42   5.75 -999 -999 -999 -99.9  64.6 1016.2 -9.9 -9.999 -99.9 -99.99 -9.99
2019/11/16 09:18 PST    5.47   5.80 -999 -999 -999 -99.9  64.6 1016.2 -9.9 -9.999 -99.9 -99.99 -9.99
2019/11/16 09:24 PST    5.51   5.84 -999 -999 -999 -99.9  64.6 1016.2 -9.9 -9.999 -99.9 -99.99 -9.99
2019/11/16 09:30 PST    5.55   5.94 -999 -999 -999 -99.9  64.6 1016.2 -9.9 -9.999 -99.9 -99.99 -9.99
2019/11/16 09:36 PST    5.59   6.02 -999 -999 -999 -99.9  64.6 1016.2 -9.9 -9.999 -99.9 -99.99 -9.99
2019/11/16 09:42 PST    5.62   6.03 -999 -999 -999 -99.9  64.6 1016.2 -9.9 -9.999 -99.9 -99.99 -9.99
2019/11/16 09:48 PST    5.65   6.04 -999 -999 -999 -99.9  64.6 1016.2 -9.9 -9.999 -99.9 -99.99 -9.99
2019/11/16 09:54 PST    5.68   6.03 -999 -999 -999 -99.9  64.6 1016.2 -9.9 -9.999 -99.9 -99.99 -9.99
2019/11/16 10:00 PST    5.70   6.03 -999 -999 -999 -99.9  64.6 1016.1 -9.9 -9.999 -99.9 -99.99 -9.99
2019/11/16 10:06 PST    5.72   5.99 -999 -999 -999 -99.9  64.6 1016.2 -9.9 -9.999 -99.9 -99.99 -9.99
2019/11/16 10:12 PST    5.73   6.01 -999 -999 -999 -99.9  64.4 1016.1 -9.9 -9.999 -99.9 -99.99 -9.99
2019/11/16 10:18 PST    5.74   6.00 -999 -999 -999 -99.9  64.6 1016.0 -9.9 -9.999 -99.9 -99.99 -9.99
2019/11/16 10:24 PST    5.75   6.04 -999 -999 -999 -99.9  64.6 1016.0 -9.9 -9.999 -99.9 -99.99 -9.99
2019/11/16 10:30 PST    5.75   6.09 -999 -999 -999 -99.9  64.6 1015.8 -9.9 -9.999 -99.9 -99.99 -9.99
2019/11/16 10:36 PST    5.75   6.12 -999 -999 -999 -99.9  64.6 1015.7 -9.9 -9.999 -99.9 -99.99 -9.99
2019/11/16 10:42 PST    5.74   6.12 -999 -999 -999 -99.9  64.6 1015.7 -9.9 -9.999 -99.9 -99.99 -9.99
2019/11/16 10:48 PST    5.73   6.08 -999 -999 -999 -99.9  64.6 1015.6 -9.9 -9.999 -99.9 -99.99 -9.99
2019/11/16 10:54 PST    5.71   6.03 -999 -999 -999 -99.9  64.6 1015.5 -9.9 -9.999 -99.9 -99.99 -9.99
2019/11/16 11:00 PST    5.69   5.96 -999 -999 -999 -99.9  64.4 1015.5 -9.9 -9.999 -99.9 -99.99 -9.99
2019/11/16 11:06 PST    5.66   5.94 -999 -999 -999 -99.9  64.6 1015.4 -9.9 -9.999 -99.9 -99.99 -9.99
2019/11/16 11:12 PST    5.63   5.87 -999 -999 -999 -99.9  64.6 1015.2 -9.9 -9.999 -99.9 -99.99 -9.99
2019/11/16 11:18 PST    5.60   5.84 -999 -999 -999 -99.9  64.6 1015.2 -9.9 -9.999 -99.9 -99.99 -9.99
2019/11/16 11:24 PST    5.56   5.83 -999 -999 -999 -99.9  64.4 1015.2 -9.9 -9.999 -99.9 -99.99 -9.99
2019/11/16 11:30 PST    5.52   5.76 -999 -999 -999 -99.9  64.4 1015.0 -9.9 -9.999 -99.9 -99.99 -9.99
2019/11/16 11:36 PST    5.47   5.73 -999 -999 -999 -99.9  64.4 1014.9 -9.9 -9.999 -99.9 -99.99 -9.99
2019/11/16 11:42 PST    5.42   5.69 -999 -999 -999 -99.9  64.4 1014.8 -9.9 -9.999 -99.9 -99.99 -9.99
2019/11/16 11:48 PST    5.36   5.65 -999 -999 -999 -99.9  64.6 1014.7 -9.9 -9.999 -99.9 -99.99 -9.99
2019/11/16 11:54 PST    5.30   5.59 -999 -999 -999 -99.9  64.6 1014.5 -9.9 -9.999 -99.9 -99.99 -9.99
2019/11/16 12:00 PST    5.23   5.53 -999 -999 -999 -99.9  64.6 1014.4 -9.9 -9.999 -99.9 -99.99 -9.99
2019/11/16 12:06 PST    5.17   5.47 -999 -999 -999 -99.9  64.6 1014.3 -9.9 -9.999 -99.9 -99.99 -9.99
2019/11/16 12:12 PST    5.09   5.39 -999 -999 -999 -99.9  64.6 1014.3 -9.9 -9.999 -99.9 -99.99 -9.99
2019/11/16 12:18 PST    5.02   5.29 -999 -999 -999 -99.9  64.6 1014.1 -9.9 -9.999 -99.9 -99.99 -9.99
2019/11/16 12:24 PST    4.93   5.20 -999 -999 -999 -99.9  64.6 1014.1 -9.9 -9.999 -99.9 -99.99 -9.99
2019/11/16 12:30 PST    4.85   5.13 -999 -999 -999 -99.9  64.6 1014.0 -9.9 -9.999 -99.9 -99.99 -9.99
2019/11/16 12:36 PST    4.76   5.06 -999 -999 -999 -99.9  64.6 1013.9 -9.9 -9.999 -99.9 -99.99 -9.99
2019/11/16 12:42 PST    4.67   5.00 -999 -999 -999 -99.9  64.6 1013.8 -9.9 -9.999 -99.9 -99.99 -9.99
2019/11/16 12:48 PST    4.58   4.91 -999 -999 -999 -99.9  64.6 1013.8 -9.9 -9.999 -99.9 -99.99 -9.99
2019/11/16 12:54 PST    4.48   4.80 -999 -999 -999 -99.9  64.6 1013.7 -9.9 -9.999 -99.9 -99.99 -9.99
2019/11/16 13:00 PST    4.38   4.73 -999 -999 -999 -99.9  64.6 1013.6 -9.9 -9.999 -99.9 -99.99 -9.99
2019/11/16 13:06 PST    4.28   4.62 -999 -999 -999 -99.9  64.6 1013.7 -9.9 -9.999 -99.9 -99.99 -9.99
2019/11/16 13:12 PST    4.17   4.49 -999 -999 -999 -99.9  64.6 1013.7 -9.9 -9.999 -99.9 -99.99 -9.99
2019/11/16 13:18 PST    4.06   4.35 -999 -999 -999 -99.9  64.6 1013.7 -9.9 -9.999 -99.9 -99.99 -9.99
2019/11/16 13:24 PST    3.95   4.21 -999 -999 -999 -99.9  64.6 1013.7 -9.9 -9.999 -99.9 -99.99 -9.99
2019/11/16 13:30 PST    3.84   4.07 -999 -999 -999 -99.9  64.6 1013.6 -9.9 -9.999 -99.9 -99.99 -9.99
2019/11/16 13:36 PST    3.73   3.94 -999 -999 -999 -99.9  64.8 1013.6 -9.9 -9.999 -99.9 -99.99 -9.99
2019/11/16 13:42 PST    3.61   3.88 -999 -999 -999 -99.9  64.8 1013.5 -9.9 -9.999 -99.9 -99.99 -9.99
2019/11/16 13:48 PST    3.50   3.77 -999 -999 -999 -99.9  64.8 1013.4 -9.9 -9.999 -99.9 -99.99 -9.99
2019/11/16 13:54 PST    3.38   3.69 -999 -999 -999 -99.9  64.8 1013.4 -9.9 -9.999 -99.9 -99.99 -9.99
2019/11/16 14:00 PST    3.26   3.57 -999 -999 -999 -99.9  64.8 1013.3 -9.9 -9.999 -99.9 -99.99 -9.99
2019/11/16 14:06 PST    3.14   3.45 -999 -999 -999 -99.9  64.8 1013.3 -9.9 -9.999 -99.9 -99.99 -9.99
2019/11/16 14:12 PST    3.02   3.33 -999 -999 -999 -99.9  64.8 1013.3 -9.9 -9.999 -99.9 -99.99 -9.99
2019/11/16 14:18 PST    2.90   3.19 -999 -999 -999 -99.9  64.8 1013.3 -9.9 -9.999 -99.9 -99.99 -9.99
2019/11/16 14:24 PST    2.78   3.02 -999 -999 -999 -99.9  64.8 1013.4 -9.9 -9.999 -99.9 -99.99 -9.99
2019/11/16 14:30 PST    2.66   2.93 -999 -999 -999 -99.9  64.8 1013.4 -9.9 -9.999 -99.9 -99.99 -9.99
2019/11/16 14:36 PST    2.54   2.83 -999 -999 -999 -99.9  64.8 1013.4 -9.9 -9.999 -99.9 -99.99 -9.99
2019/11/16 14:42 PST    2.42   2.74 -999 -999 -999 -99.9  64.8 1013.5 -9.9 -9.999 -99.9 -99.99 -9.99
2019/11/16 14:48 PST    2.31   2.58 -999 -999 -999 -99.9  64.8 1013.5 -9.9 -9.999 -99.9 -99.99 -9.99
2019/11/16 14:54 PST    2.19   2.41 -999 -999 -999 -99.9  64.8 1013.5 -9.9 -9.999 -99.9 -99.99 -9.99
2019/11/16 15:00 PST    2.07   2.31 -999 -999 -999 -99.9  64.8 1013.5 -9.9 -9.999 -99.9 -99.99 -9.99
2019/11/16 15:06 PST    1.96   2.19 -999 -999 -999 -99.9  64.8 1013.6 -9.9 -9.999 -99.9 -99.99 -9.99
2019/11/16 15:12 PST    1.85   2.08 -999 -999 -999 -99.9  64.8 1013.6 -9.9 -9.999 -99.9 -99.99 -9.99
2019/11/16 15:18 PST    1.73   1.98 -999 -999 -999 -99.9  64.9 1013.5 -9.9 -9.999 -99.9 -99.99 -9.99
2019/11/16 15:24 PST    1.63   1.91 -999 -999 -999 -99.9  64.9 1013.5 -9.9 -9.999 -99.9 -99.99 -9.99
2019/11/16 15:30 PST    1.52   1.83 -999 -999 -999 -99.9  64.9 1013.5 -9.9 -9.999 -99.9 -99.99 -9.99
2019/11/16 15:36 PST    1.41   1.77 -999 -999 -999 -99.9  64.8 1013.6 -9.9 -9.999 -99.9 -99.99 -9.99
2019/11/16 15:42 PST    1.31   1.65 -999 -999 -999 -99.9  64.9 1013.6 -9.9 -9.999 -99.9 -99.99 -9.99
2019/11/16 15:48 PST    1.21   1.52 -999 -999 -999 -99.9  64.9 1013.5 -9.9 -9.999 -99.9 -99.99 -9.99
2019/11/16 15:54 PST    1.12   1.40 -999 -999 -999 -99.9  64.9 1013.6 -9.9 -9.999 -99.9 -99.99 -9.99
2019/11/16 16:00 PST    1.02   1.32 -999 -999 -999 -99.9  64.9 1013.6 -9.9 -9.999 -99.9 -99.99 -9.99
2019/11/16 16:06 PST    0.93   1.22 -999 -999 -999 -99.9  64.9 1013.8 -9.9 -9.999 -99.9 -99.99 -9.99
2019/11/16 16:12 PST    0.85   1.14 -999 -999 -999 -99.9  64.9 1013.9 -9.9 -9.999 -99.9 -99.99 -9.99
2019/11/16 16:18 PST    0.76   1.04 -999 -999 -999 -99.9  64.9 1014.0 -9.9 -9.999 -99.9 -99.99 -9.99
2019/11/16 16:24 PST    0.68   0.96 -999 -999 -999 -99.9  64.9 1014.1 -9.9 -9.999 -99.9 -99.99 -9.99
2019/11/16 16:30 PST    0.61   0.91 -999 -999 -999 -99.9  64.8 1014.0 -9.9 -9.999 -99.9 -99.99 -9.99
2019/11/16 16:36 PST    0.53   0.89 -999 -999 -999 -99.9  64.8 1014.0 -9.9 -9.999 -99.9 -99.99 -9.99
2019/11/16 16:42 PST    0.47   0.79 -999 -999 -999 -99.9  64.8 1013.9 -9.9 -9.999 -99.9 -99.99 -9.99
2019/11/16 16:48 PST    0.40   0.68 -999 -999 -999 -99.9  64.8 1014.0 -9.9 -9.999 -99.9 -99.99 -9.99
2019/11/16 16:54 PST    0.34   0.61 -999 -999 -999 -99.9  64.8 1014.3 -9.9 -9.999 -99.9 -99.99 -9.99
2019/11/16 17:00 PST    0.29   0.61 -999 -999 -999 -99.9  64.8 1014.4 -9.9 -9.999 -99.9 -99.99 -9.99
2019/11/16 17:06 PST    0.23   0.49 -999 -999 -999 -99.9  64.8 1014.4 -9.9 -9.999 -99.9 -99.99 -9.99
2019/11/16 17:12 PST    0.19   0.41 -999 -999 -999 -99.9  64.9 1014.4 -9.9 -9.999 -99.9 -99.99 -9.99
2019/11/16 17:18 PST    0.14   0.39 -999 -999 -999 -99.9  64.9 1014.4 -9.9 -9.999 -99.9 -99.99 -9.99
2019/11/16 17:24 PST    0.11   0.36 -999 -999 -999 -99.9  64.9 1014.5 -9.9 -9.999 -99.9 -99.99 -9.99
2019/11/16 17:30 PST    0.07   0.31 -999 -999 -999 -99.9  64.9 1014.5 -9.9 -9.999 -99.9 -99.99 -9.99
2019/11/16 17:36 PST    0.04   0.30 -999 -999 -999 -99.9  64.9 1014.3 -9.9 -9.999 -99.9 -99.99 -9.99
2019/11/16 17:42 PST    0.02   0.29 -999 -999 -999 -99.9  64.9 1014.4 -9.9 -9.999 -99.9 -99.99 -9.99
2019/11/16 17:48 PST   -0.00   0.27 -999 -999 -999 -99.9  64.9 1014.3 -9.9 -9.999 -99.9 -99.99 -9.99
2019/11/16 17:54 PST   -0.02   0.34 -999 -999 -999 -99.9  64.9 1014.4 -9.9 -9.999 -99.9 -99.99 -9.99
2019/11/16 18:00 PST   -0.03   0.34 -999 -999 -999 -99.9  64.9 1014.5 -9.9 -9.999 -99.9 -99.99 -9.99
2019/11/16 18:06 PST   -0.04   0.35 -999 -999 -999 -99.9  64.9 1014.7 -9.9 -9.999 -99.9 -99.99 -9.99
2019/11/16 18:12 PST   -0.04   0.30 -999 -999 -999 -99.9  64.9 1015.0 -9.9 -9.999 -99.9 -99.99 -9.99
2019/11/16 18:18 PST   -0.04   0.26 -999 -999 -999 -99.9  64.9 1015.0 -9.9 -9.999 -99.9 -99.99 -9.99
2019/11/16 18:24 PST   -0.03   0.21 -999 -999 -999 -99.9  64.9 1015.1 -9.9 -9.999 -99.9 -99.99 -9.99
2019/11/16 18:30 PST   -0.02   0.22 -999 -999 -999 -99.9  64.9 1015.1 -9.9 -9.999 -99.9 -99.99 -9.99
2019/11/16 18:36 PST   -0.01   0.22 -999 -999 -999 -99.9  64.9 1015.3 -9.9 -9.999 -99.9 -99.99 -9.99
2019/11/16 18:42 PST    0.01   0.20 -999 -999 -999 -99.9  64.9 1015.2 -9.9 -9.999 -99.9 -99.99 -9.99
2019/11/16 18:48 PST    0.04   0.26 -999 -999 -999 -99.9  64.9 1015.1 -9.9 -9.999 -99.9 -99.99 -9.99
2019/11/16 18:54 PST    0.06   0.36 -999 -999 -999 -99.9  64.9 1015.1 -9.9 -9.999 -99.9 -99.99 -9.99
2019/11/16 19:00 PST    0.09   0.46 -999 -999 -999 -99.9  64.9 1015.1 -9.9 -9.999 -99.9 -99.99 -9.99
2019/11/16 19:06 PST    0.13   0.50 -999 -999 -999 -99.9  64.9 1015.2 -9.9 -9.999 -99.9 -99.99 -9.99
2019/11/16 19:12 PST    0.16   0.53 -999 -999 -999 -99.9  64.9 1015.2 -9.9 -9.999 -99.9 -99.99 -9.99
2019/11/16 19:18 PST    0.21   0.50 -999 -999 -999 -99.9  64.9 1015.2 -9.9 -9.999 -99.9 -99.99 -9.99
2019/11/16 19:24 PST    0.25   0.47 -999 -999 -999 -99.9  64.9 1015.3 -9.9 -9.999 -99.9 -99.99 -9.99
2019/11/16 19:30 PST    0.30   0.50 -999 -999 -999 -99.9  64.9 1015.1 -9.9 -9.999 -99.9 -99.99 -9.99
2019/11/16 19:36 PST    0.35   0.57 -999 -999 -999 -99.9  64.9 1015.1 -9.9 -9.999 -99.9 -99.99 -9.99
2019/11/16 19:42 PST    0.40   0.64 -999 -999 -999 -99.9  64.9 1015.2 -9.9 -9.999 -99.9 -99.99 -9.99
2019/11/16 19:48 PST    0.46   0.68 -999 -999 -999 -99.9  64.9 1015.0 -9.9 -9.999 -99.9 -99.99 -9.99
2019/11/16 19:54 PST    0.52   0.74 -999 -999 -999 -99.9  64.9 1015.1 -9.9 -9.999 -99.9 -99.99 -9.99
2019/11/16 20:00 PST    0.58   0.84 -999 -999 -999 -99.9  64.9 1015.2 -9.9 -9.999 -99.9 -99.99 -9.99
2019/11/16 20:06 PST    0.64   0.98 -999 -999 -999 -99.9  64.8 1015.2 -9.9 -9.999 -99.9 -99.99 -9.99
2019/11/16 20:12 PST    0.71   1.12 -999 -999 -999 -99.9  64.8 1015.2 -9.9 -9.999 -99.9 -99.99 -9.99
2019/11/16 20:18 PST    0.78   1.19 -999 -999 -999 -99.9  64.8 1015.3 -9.9 -9.999 -99.9 -99.99 -9.99
2019/11/16 20:24 PST    0.85   1.25 -999 -999 -999 -99.9  64.8 1015.2 -9.9 -9.999 -99.9 -99.99 -9.99
2019/11/16 20:30 PST    0.92   1.29 -999 -999 -999 -99.9  64.8 1015.2 -9.9 -9.999 -99.9 -99.99 -9.99
2019/11/16 20:36 PST    0.99   1.34 -999 -999 -999 -99.9  64.8 1015.2 -9.9 -9.999 -99.9 -99.99 -9.99
2019/11/16 20:42 PST    1.07   1.34 -999 -999 -999 -99.9  64.8 1015.2 -9.9 -9.999 -99.9 -99.99 -9.99
2019/11/16 20:48 PST    1.14   1.40 -999 -999 -999 -99.9  64.9 1015.3 -9.9 -9.999 -99.9 -99.99 -9.99
2019/11/16 20:54 PST    1.22   1.49 -999 -999 -999 -99.9  64.9 1015.2 -9.9 -9.999 -99.9 -99.99 -9.99
2019/11/16 21:00 PST    1.30   1.54 -999 -999 -999 -99.9  64.9 1015.3 -9.9 -9.999 -99.9 -99.99 -9.99
2019/11/16 21:06 PST    1.38   1.63 -999 -999 -999 -99.9  64.9 1015.4 -9.9 -9.999 -99.9 -99.99 -9.99
2019/11/16 21:12 PST    1.45   1.76 -999 -999 -999 -99.9  64.9 1015.5 -9.9 -9.999 -99.9 -99.99 -9.99
2019/11/16 21:18 PST    1.53   1.89 -999 -999 -999 -99.9  64.9 1015.5 -9.9 -9.999 -99.9 -99.99 -9.99
2019/11/16 21:24 PST    1.61   1.98 -999 -999 -999 -99.9  64.9 1015.6 -9.9 -9.999 -99.9 -99.99 -9.99
2019/11/16 21:30 PST    1.69   2.01 -999 -999 -999 -99.9  64.8 1015.5 -9.9 -9.999 -99.9 -99.99 -9.99
2019/11/16 21:36 PST    1.77   2.06 -999 -999 -999 -99.9  64.9 1015.6 -9.9 -9.999 -99.9 -99.99 -9.99
2019/11/16 21:42 PST    1.85   2.08 -999 -999 -999 -99.9  64.9 1015.6 -9.9 -9.999 -99.9 -99.99 -9.99
2019/11/16 21:48 PST    1.92   2.18 -999 -999 -999 -99.9  64.9 1015.6 -9.9 -9.999 -99.9 -99.99 -9.99
2019/11/16 21:54 PST    2.00   2.23 -999 -999 -999 -99.9  64.8 1015.7 -9.9 -9.999 -99.9 -99.99 -9.99
2019/11/16 22:00 PST    2.08   2.31 -999 -999 -999 -99.9  64.8 1015.8 -9.9 -9.999 -99.9 -99.99 -9.99
2019/11/16 22:06 PST    2.15   2.34 -999 -999 -999 -99.9  64.9 1015.8 -9.9 -9.999 -99.9 -99.99 -9.99
2019/11/16 22:12 PST    2.23   2.44 -999 -999 -999 -99.9  64.8 1015.8 -9.9 -9.999 -99.9 -99.99 -9.99
2019/11/16 22:18 PST    2.30   2.56 -999 -999 -999 -99.9  64.8 1015.7 -9.9 -9.999 -99.9 -99.99 -9.99
2019/11/16 22:24 PST    2.37   2.69 -999 -999 -999 -99.9  64.9 1015.8 -9.9 -9.999 -99.9 -99.99 -9.99
2019/11/16 22:30 PST    2.44   2.77 -999 -999 -999 -99.9  64.9 1015.8 -9.9 -9.999 -99.9 -99.99 -9.99
2019/11/16 22:36 PST    2.51   2.81 -999 -999 -999 -99.9  64.9 1015.8 -9.9 -9.999 -99.9 -99.99 -9.99
2019/11/16 22:42 PST    2.57   2.86 -999 -999 -999 -99.9  64.9 1015.9 -9.9 -9.999 -99.9 -99.99 -9.99
2019/11/16 22:48 PST    2.64   2.97 -999 -999 -999 -99.9  64.9 1015.8 -9.9 -9.999 -99.9 -99.99 -9.99
2019/11/16 22:54 PST    2.70   3.05 -999 -999 -999 -99.9  64.9 1016.0 -9.9 -9.999 -99.9 -99.99 -9.99
2019/11/16 23:00 PST    2.76   3.08 -999 -999 -999 -99.9  64.9 1015.9 -9.9 -9.999 -99.9 -99.99 -9.99
2019/11/16 23:06 PST    2.82   3.11 -999 -999 -999 -99.9  64.9 1015.8 -9.9 -9.999 -99.9 -99.99 -9.99
2019/11/16 23:12 PST    2.88   3.17 -999 -999 -999 -99.9  64.9 1015.9 -9.9 -9.999 -99.9 -99.99 -9.99
2019/11/16 23:18 PST    2.93   3.21 -999 -999 -999 -99.9  64.9 1015.9 -9.9 -9.999 -99.9 -99.99 -9.99
2019/11/16 23:24 PST    2.98   3.29 -999 -999 -999 -99.9  64.9 1015.8 -9.9 -9.999 -99.9 -99.99 -9.99
2019/11/16 23:30 PST    3.03   3.37 -999 -999 -999 -99.9  64.9 1015.7 -9.9 -9.999 -99.9 -99.99 -9.99
2019/11/16 23:36 PST    3.08   3.41 -999 -999 -999 -99.9  64.9 1015.7 -9.9 -9.999 -99.9 -99.99 -9.99
2019/11/16 23:42 PST    3.12   3.49 -999 -999 -999 -99.9  64.9 1015.7 -9.9 -9.999 -99.9 -99.99 -9.99
2019/11/16 23:48 PST    3.16   3.53 -999 -999 -999 -99.9  64.9 1015.6 -9.9 -9.999 -99.9 -99.99 -9.99
2019/11/16 23:54 PST    3.20   3.60 -999 -999 -999 -99.9  64.9 1015.6 -9.9 -9.999 -99.9 -99.99 -9.99
2019/11/17 00:00 PST    3.24   3.59 -999 -999 -999 -99.9  64.8 1015.6 -9.9 -9.999 -99.9 -99.99 -9.99
2019/11/17 00:06 PST    3.27   3.62 -999 -999 -999 -99.9  64.8 1015.6 -9.9 -9.999 -99.9 -99.99 -9.99
2019/11/17 00:12 PST    3.30   3.60 -999 -999 -999 -99.9  64.8 1015.6 -9.9 -9.999 -99.9 -99.99 -9.99
2019/11/17 00:18 PST    3.33   3.59 -999 -999 -999 -99.9  64.8 1015.6 -9.9 -9.999 -99.9 -99.99 -9.99
2019/11/17 00:24 PST    3.36   3.61 -999 -999 -999 -99.9  64.8 1015.5 -9.9 -9.999 -99.9 -99.99 -9.99
2019/11/17 00:30 PST    3.38   3.66 -999 -999 -999 -99.9  64.8 1015.5 -9.9 -9.999 -99.9 -99.99 -9.99
2019/11/17 00:36 PST    3.40   3.70 -999 -999 -999 -99.9  64.8 1015.7 -9.9 -9.999 -99.9 -99.99 -9.99
2019/11/17 00:42 PST    3.42   3.74 -999 -999 -999 -99.9  64.8 1015.7 -9.9 -9.999 -99.9 -99.99 -9.99
2019/11/17 00:48 PST    3.44   3.73 -999 -999 -999 -99.9  64.8 1015.7 -9.9 -9.999 -99.9 -99.99 -9.99
2019/11/17 00:54 PST    3.45   3.76 -999 -999 -999 -99.9  64.8 1015.7 -9.9 -9.999 -99.9 -99.99 -9.99
2019/11/17 01:00 PST    3.46   3.80 -999 -999 -999 -99.9  64.8 1015.7 -9.9 -9.999 -99.9 -99.99 -9.99
2019/11/17 01:06 PST    3.47   3.78 -999 -999 -999 -99.9  64.8 1015.7 -9.9 -9.999 -99.9 -99.99 -9.99
2019/11/17 01:12 PST    3.48   3.80 -999 -999 -999 -99.9  64.8 1015.7 -9.9 -9.999 -99.9 -99.99 -9.99
2019/11/17 01:18 PST    3.48   3.80 -999 -999 -999 -99.9  64.8 1015.6 -9.9 -9.999 -99.9 -99.99 -9.99
2019/11/17 01:24 PST    3.48   3.82 -999 -999 -999 -99.9  64.8 1015.4 -9.9 -9.999 -99.9 -99.99 -9.99
2019/11/17 01:30 PST    3.48   3.82 -999 -999 -999 -99.9  64.8 1015.3 -9.9 -9.999 -99.9 -99.99 -9.99
2019/11/17 01:36 PST    3.48   3.81 -999 -999 -999 -99.9  64.8 1015.4 -9.9 -9.999 -99.9 -99.99 -9.99
2019/11/17 01:42 PST    3.48   3.79 -999 -999 -999 -99.9  64.8 1015.4 -9.9 -9.999 -99.9 -99.99 -9.99
2019/11/17 01:48 PST    3.47   3.77 -999 -999 -999 -99.9  64.8 1015.3 -9.9 -9.999 -99.9 -99.99 -9.99
2019/11/17 01:54 PST    3.47   3.77 -999 -999 -999 -99.9  64.8 1015.4 -9.9 -9.999 -99.9 -99.99 -9.99
2019/11/17 02:00 PST    3.46   3.77 -999 -999 -999 -99.9  64.8 1015.3 -9.9 -9.999 -99.9 -99.99 -9.99
2019/11/17 02:06 PST    3.45   3.76 -999 -999 -999 -99.9  64.8 1015.3 -9.9 -9.999 -99.9 -99.99 -9.99
2019/11/17 02:12 PST    3.44   3.73 -999 -999 -999 -99.9  64.8 1015.4 -9.9 -9.999 -99.9 -99.99 -9.99
2019/11/17 02:18 PST    3.43   3.73 -999 -999 -999 -99.9  64.8 1015.4 -9.9 -9.999 -99.9 -99.99 -9.99
2019/11/17 02:24 PST    3.41   3.69 -999 -999 -999 -99.9  64.8 1015.4 -9.9 -9.999 -99.9 -99.99 -9.99
2019/11/17 02:30 PST    3.40   3.67 -999 -999 -999 -99.9  64.8 1015.4 -9.9 -9.999 -99.9 -99.99 -9.99
2019/11/17 02:36 PST    3.38   3.63 -999 -999 -999 -99.9  64.8 1015.3 -9.9 -9.999 -99.9 -99.99 -9.99
2019/11/17 02:42 PST    3.37   3.64 -999 -999 -999 -99.9  64.8 1015.3 -9.9 -9.999 -99.9 -99.99 -9.99
2019/11/17 02:48 PST    3.35   3.59 -999 -999 -999 -99.9  64.8 1015.3 -9.9 -9.999 -99.9 -99.99 -9.99
2019/11/17 02:54 PST    3.33   3.59 -999 -999 -999 -99.9  64.8 1015.2 -9.9 -9.999 -99.9 -99.99 -9.99
2019/11/17 03:00 PST    3.32   3.55 -999 -999 -999 -99.9  64.8 1015.3 -9.9 -9.999 -99.9 -99.99 -9.99
2019/11/17 03:06 PST    3.30   3.52 -999 -999 -999 -99.9  64.8 1015.4 -9.9 -9.999 -99.9 -99.99 -9.99
2019/11/17 03:12 PST    3.28   3.52 -999 -999 -999 -99.9  64.8 1015.3 -9.9 -9.999 -99.9 -99.99 -9.99
2019/11/17 03:18 PST    3.26   3.48 -999 -999 -999 -99.9  64.8 1015.3 -9.9 -9.999 -99.9 -99.99 -9.99
2019/11/17 03:24 PST    3.25   3.43 -999 -999 -999 -99.9  64.8 1015.4 -9.9 -9.999 -99.9 -99.99 -9.99
2019/11/17 03:30 PST    3.23   3.40 -999 -999 -999 -99.9  64.8 1015.5 -9.9 -9.999 -99.9 -99.99 -9.99
2019/11/17 03:36 PST    3.21   3.40 -999 -999 -999 -99.9  64.8 1015.4 -9.9 -9.999 -99.9 -99.99 -9.99
2019/11/17 03:42 PST    3.20   3.41 -999 -999 -999 -99.9  64.8 1015.3 -9.9 -9.999 -99.9 -99.99 -9.99
2019/11/17 03:48 PST    3.18   3.43 -999 -999 -999 -99.9  64.8 1015.2 -9.9 -9.999 -99.9 -99.99 -9.99
2019/11/17 03:54 PST    3.17   3.40 -999 -999 -999 -99.9  64.8 1015.3 -9.9 -9.999 -99.9 -99.99 -9.99
2019/11/17 04:00 PST    3.15   3.41 -999 -999 -999 -99.9  64.8 1015.2 -9.9 -9.999 -99.9 -99.99 -9.99
2019/11/17 04:06 PST    3.14   3.36 -999 -999 -999 -99.9  64.8 1015.1 -9.9 -9.999 -99.9 -99.99 -9.99
2019/11/17 04:12 PST    3.13   3.36 -999 -999 -999 -99.9  64.8 1015.1 -9.9 -9.999 -99.9 -99.99 -9.99
2019/11/17 04:18 PST    3.12   3.33 -999 -999 -999 -99.9  64.8 1015.2 -9.9 -9.999 -99.9 -99.99 -9.99
2019/11/17 04:24 PST    3.11   3.27 -999 -999 -999 -99.9  64.8 1015.1 -9.9 -9.999 -99.9 -99.99 -9.99
2019/11/17 04:30 PST    3.10   3.22 -999 -999 -999 -99.9  64.8 1015.1 -9.9 -9.999 -99.9 -99.99 -9.99
2019/11/17 04:36 PST    3.10   3.21 -999 -999 -999 -99.9  64.8 1015.0 -9.9 -9.999 -99.9 -99.99 -9.99
2019/11/17 04:42 PST    3.09   3.22 -999 -999 -999 -99.9  64.8 1015.0 -9.9 -9.999 -99.9 -99.99 -9.99
2019/11/17 04:48 PST    3.09   3.23 -999 -999 -999 -99.9  64.8 1015.0 -9.9 -9.999 -99.9 -99.99 -9.99
2019/11/17 04:54 PST    3.09   3.27 -999 -999 -999 -99.9  64.8 1015.0 -9.9 -9.999 -99.9 -99.99 -9.99
2019/11/17 05:00 PST    3.09   3.31 -999 -999 -999 -99.9  64.8 1014.9 -9.9 -9.999 -99.9 -99.99 -9.99
2019/11/17 05:06 PST    3.10   3.33 -999 -999 -999 -99.9  64.8 1014.9 -9.9 -9.999 -99.9 -99.99 -9.99
2019/11/17 05:12 PST    3.10   3.36 -999 -999 -999 -99.9  64.8 1015.0 -9.9 -9.999 -99.9 -99.99 -9.99
2019/11/17 05:18 PST    3.11   3.39 -999 -999 -999 -99.9  64.8 1015.0 -9.9 -9.999 -99.9 -99.99 -9.99
2019/11/17 05:24 PST    3.12   3.37 -999 -999 -999 -99.9  64.8 1015.0 -9.9 -9.999 -99.9 -99.99 -9.99
2019/11/17 05:30 PST    3.13   3.38 -999 -999 -999 -99.9  64.8 1015.0 -9.9 -9.999 -99.9 -99.99 -9.99
2019/11/17 05:36 PST    3.14   3.32 -999 -999 -999 -99.9  64.8 1014.9 -9.9 -9.999 -99.9 -99.99 -9.99
2019/11/17 05:42 PST    3.16   3.37 -999 -999 -999 -99.9  64.8 1015.0 -9.9 -9.999 -99.9 -99.99 -9.99
2019/11/17 05:48 PST    3.17   3.37 -999 -999 -999 -99.9  64.8 1014.9 -9.9 -9.999 -99.9 -99.99 -9.99
2019/11/17 05:54 PST    3.19   3.48 -999 -999 -999 -99.9  64.8 1015.2 -9.9 -9.999 -99.9 -99.99 -9.99
2019/11/17 06:00 PST    3.22   3.50 -999 -999 -999 -99.9  64.8 1015.2 -9.9 -9.999 -99.9 -99.99 -9.99
2019/11/17 06:06 PST    3.24   3.54 -999 -999 -999 -99.9  64.8 1015.2 -9.9 -9.999 -99.9 -99.99 -9.99
2019/11/17 06:12 PST    3.27   3.57 -999 -999 -999 -99.9  64.8 1015.2 -9.9 -9.999 -99.9 -99.99 -9.99
2019/11/17 06:18 PST    3.30   3.63 -999 -999 -999 -99.9  64.8 1015.4 -9.9 -9.999 -99.9 -99.99 -9.99
2019/11/17 06:24 PST    3.33   3.61 -999 -999 -999 -99.9  64.8 1015.4 -9.9 -9.999 -99.9 -99.99 -9.99
2019/11/17 06:30 PST    3.36   3.64 -999 -999 -999 -99.9  64.8 1015.4 -9.9 -9.999 -99.9 -99.99 -9.99
2019/11/17 06:36 PST    3.39   3.59 -999 -999 -999 -99.9  64.8 1015.4 -9.9 -9.999 -99.9 -99.99 -9.99
2019/11/17 06:42 PST    3.43   3.66 -999 -999 -999 -99.9  64.8 1015.5 -9.9 -9.999 -99.9 -99.99 -9.99
2019/11/17 06:48 PST    3.47   3.70 -999 -999 -999 -99.9  64.8 1015.5 -9.9 -9.999 -99.9 -99.99 -9.99
2019/11/17 06:54 PST    3.51   3.77 -999 -999 -999 -99.9  64.8 1015.4 -9.9 -9.999 -99.9 -99.99 -9.99
2019/11/17 07:00 PST    3.55   3.80 -999 -999 -999 -99.9  64.8 1015.5 -9.9 -9.999 -99.9 -99.99 -9.99
2019/11/17 07:06 PST    3.60   3.87 -999 -999 -999 -99.9  64.8 1015.5 -9.9 -9.999 -99.9 -99.99 -9.99
2019/11/17 07:12 PST    3.64   3.90 -999 -999 -999 -99.9  64.8 1015.5 -9.9 -9.999 -99.9 -99.99 -9.99
2019/11/17 07:18 PST    3.69   3.96 -999 -999 -999 -99.9  64.8 1015.6 -9.9 -9.999 -99.9 -99.99 -9.99
2019/11/17 07:24 PST    3.74   4.00 -999 -999 -999 -99.9  64.8 1015.6 -9.9 -9.999 -99.9 -99.99 -9.99
2019/11/17 07:30 PST    3.79   4.04 -999 -999 -999 -99.9  64.8 1015.6 -9.9 -9.999 -99.9 -99.99 -9.99
2019/11/17 07:36 PST    3.84   4.09 -999 -999 -999 -99.9  64.8 1015.7 -9.9 -9.999 -99.9 -99.99 -9.99
2019/11/17 07:42 PST    3.89   4.22 -999 -999 -999 -99.9  64.6 1015.7 -9.9 -9.999 -99.9 -99.99 -9.99
2019/11/17 07:48 PST    3.95   4.26 -999 -999 -999 -99.9  64.6 1015.7 -9.9 -9.999 -99.9 -99.99 -9.99
2019/11/17 07:54 PST    4.00   4.31 -999 -999 -999 -99.9  64.6 1015.6 -9.9 -9.999 -99.9 -99.99 -9.99
2019/11/17 08:00 PST    4.06   4.30 -999 -999 -999 -99.9  64.6 1015.7 -9.9 -9.999 -99.9 -99.99 -9.99
2019/11/17 08:06 PST    4.11   4.35 -999 -999 -999 -99.9  64.6 1015.7 -9.9 -9.999 -99.9 -99.99 -9.99
2019/11/17 08:12 PST    4.17   4.43 -999 -999 -999 -99.9  64.6 1015.7 -9.9 -9.999 -99.9 -99.99 -9.99
2019/11/17 08:18 PST    4.23   4.52 -999 -999 -999 -99.9  64.6 1015.7 -9.9 -9.999 -99.9 -99.99 -9.99
2019/11/17 08:24 PST    4.29   4.56 -999 -999 -999 -99.9  64.6 1015.6 -9.9 -9.999 -99.9 -99.99 -9.99
2019/11/17 08:30 PST    4.34   4.63 -999 -999 -999 -99.9  64.6 1015.6 -9.9 -9.999 -99.9 -99.99 -9.99
2019/11/17 08:36 PST    4.40   4.72 -999 -999 -999 -99.9  64.6 1015.5 -9.9 -9.999 -99.9 -99.99 -9.99
2019/11/17 08:42 PST    4.46   4.79 -999 -999 -999 -99.9  64.6 1015.5 -9.9 -9.999 -99.9 -99.99 -9.99
2019/11/17 08:48 PST    4.52   4.82 -999 -999 -999 -99.9  64.4 1015.5 -9.9 -9.999 -99.9 -99.99 -9.99
2019/11/17 08:54 PST    4.57   4.88 -999 -999 -999 -99.9  64.4 1015.5 -9.9 -9.999 -99.9 -99.99 -9.99
2019/11/17 09:00 PST    4.63   4.92 -999 -999 -999 -99.9  64.4 1015.5 -9.9 -9.999 -99.9 -99.99 -9.99
2019/11/17 09:06 PST    4.68   4.99 -999 -999 -999 -99.9  64.4 1015.5 -9.9 -9.999 -99.9 -99.99 -9.99
2019/11/17 09:12 PST    4.74   5.04 -999 -999 -999 -99.9  64.4 1015.5 -9.9 -9.999 -99.9 -99.99 -9.99
2019/11/17 09:18 PST    4.79   5.10 -999 -999 -999 -99.9  64.4 1015.5 -9.9 -9.999 -99.9 -99.99 -9.99
2019/11/17 09:24 PST    4.84   5.12 -999 -999 -999 -99.9  64.4 1015.4 -9.9 -9.999 -99.9 -99.99 -9.99
2019/11/17 09:30 PST    4.89   5.18 -999 -999 -999 -99.9  64.4 1015.5 -9.9 -9.999 -99.9 -99.99 -9.99
2019/11/17 09:36 PST    4.94   5.27 -999 -999 -999 -99.9  64.4 1015.5 -9.9 -9.999 -99.9 -99.99 -9.99
2019/11/17 09:42 PST    4.99   5.31 -999 -999 -999 -99.9  64.4 1015.4 -9.9 -9.999 -99.9 -99.99 -9.99
2019/11/17 09:48 PST    5.03   5.31 -999 -999 -999 -99.9  64.4 1015.5 -9.9 -9.999 -99.9 -99.99 -9.99
2019/11/17 09:54 PST    5.08   5.31 -999 -999 -999 -99.9  64.4 1015.4 -9.9 -9.999 -99.9 -99.99 -9.99
2019/11/17 10:00 PST    5.12   5.34 -999 -999 -999 -99.9  64.4 1015.4 -9.9 -9.999 -99.9 -99.99 -9.99
2019/11/17 10:06 PST    5.16   5.42 -999 -999 -999 -99.9  64.4 1015.4 -9.9 -9.999 -99.9 -99.99 -9.99
2019/11/17 10:12 PST    5.19   5.46 -999 -999 -999 -99.9  64.4 1015.3 -9.9 -9.999 -99.9 -99.99 -9.99
2019/11/17 10:18 PST    5.23   5.51 -999 -999 -999 -99.9  64.4 1015.3 -9.9 -9.999 -99.9 -99.99 -9.99
2019/11/17 10:24 PST    5.26   5.58 -999 -999 -999 -99.9  64.4 1015.2 -9.9 -9.999 -99.9 -99.99 -9.99
2019/11/17 10:30 PST    5.29   5.63 -999 -999 -999 -99.9  64.4 1015.1 -9.9 -9.999 -99.9 -99.99 -9.99
2019/11/17 10:36 PST    5.31   5.67 -999 -999 -999 -99.9  64.4 1015.0 -9.9 -9.999 -99.9 -99.99 -9.99
2019/11/17 10:42 PST    5.34   5.70 -999 -999 -999 -99.9  64.4 1014.9 -9.9 -9.999 -99.9 -99.99 -9.99
2019/11/17 10:48 PST    5.36   5.69 -999 -999 -999 -99.9  64.4 1014.9 -9.9 -9.999 -99.9 -99.99 -9.99
2019/11/17 10:54 PST    5.37   5.69 -999 -999 -999 -99.9  64.4 1014.8 -9.9 -9.999 -99.9 -99.99 -9.99
2019/11/17 11:00 PST    5.39   5.71 -999 -999 -999 -99.9  64.6 1014.8 -9.9 -9.999 -99.9 -99.99 -9.99
2019/11/17 11:06 PST    5.40   5.72 -999 -999 -999 -99.9  64.6 1014.7 -9.9 -9.999 -99.9 -99.99 -9.99
2019/11/17 11:12 PST    5.40   5.69 -999 -999 -999 -99.9  64.6 1014.6 -9.9 -9.999 -99.9 -99.99 -9.99
2019/11/17 11:18 PST    5.41   5.69 -999 -999 -999 -99.9  64.4 1014.5 -9.9 -9.999 -99.9 -99.99 -9.99
2019/11/17 11:24 PST    5.41   5.68 -999 -999 -999 -99.9  64.4 1014.4 -9.9 -9.999 -99.9 -99.99 -9.99
2019/11/17 11:30 PST    5.40   5.70 -999 -999 -999 -99.9  64.4 1014.3 -9.9 -9.999 -99.9 -99.99 -9.99
2019/11/17 11:36 PST    5.39   5.68 -999 -999 -999 -99.9  64.4 1014.2 -9.9 -9.999 -99.9 -99.99 -9.99
2019/11/17 11:42 PST    5.38   5.69 -999 -999 -999 -99.9  64.4 1014.2 -9.9 -9.999 -99.9 -99.99 -9.99
2019/11/17 11:48 PST    5.37   5.66 -999 -999 -999 -99.9  64.4 1014.1 -9.9 -9.999 -99.9 -99.99 -9.99
2019/11/17 11:54 PST    5.35   5.61 -999 -999 -999 -99.9  64.4 1014.0 -9.9 -9.999 -99.9 -99.99 -9.99
2019/11/17 12:00 PST    5.33   5.59 -999 -999 -999 -99.9  64.4 1014.0 -9.9 -9.999 -99.9 -99.99 -9.99
2019/11/17 12:06 PST    5.30   5.57 -999 -999 -999 -99.9  64.4 1013.9 -9.9 -9.999 -99.9 -99.99 -9.99
2019/11/17 12:12 PST    5.27   5.51 -999 -999 -999 -99.9  64.4 1013.9 -9.9 -9.999 -99.9 -99.99 -9.99
2019/11/17 12:18 PST    5.23   5.48 -999 -999 -999 -99.9  64.4 1013.7 -9.9 -9.999 -99.9 -99.99 -9.99
2019/11/17 12:24 PST    5.20   5.42 -999 -999 -999 -99.9  64.4 1013.6 -9.9 -9.999 -99.9 -99.99 -9.99
2019/11/17 12:30 PST    5.15   5.40 -999 -999 -999 -99.9  64.4 1013.6 -9.9 -9.999 -99.9 -99.99 -9.99
2019/11/17 12:36 PST    5.11   5.35 -999 -999 -999 -99.9  64.4 1013.6 -9.9 -9.999 -99.9 -99.99 -9.99
2019/11/17 12:42 PST    5.06   5.33 -999 -999 -999 -99.9  64.4 1013.6 -9.9 -9.999 -99.9 -99.99 -9.99
2019/11/17 12:48 PST    5.01   5.25 -999 -999 -999 -99.9  64.4 1013.5 -9.9 -9.999 -99.9 -99.99 -9.99
2019/11/17 12:54 PST    4.95   5.18 -999 -999 -999 -99.9  64.4 1013.5 -9.9 -9.999 -99.9 -99.99 -9.99
2019/11/17 13:00 PST    4.89   5.09 -999 -999 -999 -99.9  64.4 1013.5 -9.9 -9.999 -99.9 -99.99 -9.99
2019/11/17 13:06 PST    4.83   4.99 -999 -999 -999 -99.9  64.4 1013.4 -9.9 -9.999 -99.9 -99.99 -9.99
2019/11/17 13:12 PST    4.76   4.90 -999 -999 -999 -99.9  64.4 1013.3 -9.9 -9.999 -99.9 -99.99 -9.99
2019/11/17 13:18 PST    4.69   4.86 -999 -999 -999 -99.9  64.6 1013.3 -9.9 -9.999 -99.9 -99.99 -9.99
2019/11/17 13:24 PST    4.62   4.84 -999 -999 -999 -99.9  64.6 1013.2 -9.9 -9.999 -99.9 -99.99 -9.99
2019/11/17 13:30 PST    4.54   4.78 -999 -999 -999 -99.9  64.4 1013.2 -9.9 -9.999 -99.9 -99.99 -9.99
2019/11/17 13:36 PST    4.46   4.70 -999 -999 -999 -99.9  64.4 1013.1 -9.9 -9.999 -99.9 -99.99 -9.99
2019/11/17 13:42 PST    4.38   4.61 -999 -999 -999 -99.9  64.4 1013.1 -9.9 -9.999 -99.9 -99.99 -9.99
2019/11/17 13:48 PST    4.30   4.57 -999 -999 -999 -99.9  64.4 1013.1 -9.9 -9.999 -99.9 -99.99 -9.99
2019/11/17 13:54 PST    4.21   4.48 -999 -999 -999 -99.9  64.6 1013.1 -9.9 -9.999 -99.9 -99.99 -9.99
2019/11/17 14:00 PST    4.12   4.34 -999 -999 -999 -99.9  64.6 1013.2 -9.9 -9.999 -99.9 -99.99 -9.99
2019/11/17 14:06 PST    4.03   4.26 -999 -999 -999 -99.9  64.6 1013.2 -9.9 -9.999 -99.9 -99.99 -9.99
2019/11/17 14:12 PST    3.94   4.20 -999 -999 -999 -99.9  64.6 1013.1 -9.9 -9.999 -99.9 -99.99 -9.99
2019/11/17 14:18 PST    3.84   4.13 -999 -999 -999 -99.9  64.8 1013.1 -9.9 -9.999 -99.9 -99.99 -9.99
2019/11/17 14:24 PST    3.74   4.04 -999 -999 -999 -99.9  64.8 1013.1 -9.9 -9.999 -99.9 -99.99 -9.99
2019/11/17 14:30 PST    3.64   3.92 -999 -999 -999 -99.9  64.8 1013.1 -9.9 -9.999 -99.9 -99.99 -9.99
2019/11/17 14:36 PST    3.54   3.78 -999 -999 -999 -99.9  64.8 1013.1 -9.9 -9.999 -99.9 -99.99 -9.99
2019/11/17 14:42 PST    3.44   3.68 -999 -999 -999 -99.9  64.8 1013.1 -9.9 -9.999 -99.9 -99.99 -9.99
2019/11/17 14:48 PST    3.33   3.62 -999 -999 -999 -99.9  64.8 1013.0 -9.9 -9.999 -99.9 -99.99 -9.99
2019/11/17 14:54 PST    3.23   3.53 -999 -999 -999 -99.9  64.8 1013.0 -9.9 -9.999 -99.9 -99.99 -9.99
2019/11/17 15:00 PST    3.12   3.39 -999 -999 -999 -99.9  64.8 1013.0 -9.9 -9.999 -99.9 -99.99 -9.99
2019/11/17 15:06 PST    3.02   3.27 -999 -999 -999 -99.9  64.8 1013.0 -9.9 -9.999 -99.9 -99.99 -9.99
2019/11/17 15:12 PST    2.91   3.17 -999 -999 -999 -99.9  64.9 1013.0 -9.9 -9.999 -99.9 -99.99 -9.99
2019/11/17 15:18 PST    2.81   3.10 -999 -999 -999 -99.9  64.9 1013.0 -9.9 -9.999 -99.9 -99.99 -9.99
2019/11/17 15:24 PST    2.70   2.97 -999 -999 -999 -99.9  64.8 1012.9 -9.9 -9.999 -99.9 -99.99 -9.99
2019/11/17 15:30 PST    2.59   2.83 -999 -999 -999 -99.9  64.8 1012.9 -9.9 -9.999 -99.9 -99.99 -9.99
2019/11/17 15:36 PST    2.48   2.71 -999 -999 -999 -99.9  64.8 1012.9 -9.9 -9.999 -99.9 -99.99 -9.99
2019/11/17 15:42 PST    2.38   2.66 -999 -999 -999 -99.9  64.8 1012.9 -9.9 -9.999 -99.9 -99.99 -9.99
2019/11/17 15:48 PST    2.27   2.59 -999 -999 -999 -99.9  64.8 1013.0 -9.9 -9.999 -99.9 -99.99 -9.99
2019/11/17 15:54 PST    2.17   2.47 -999 -999 -999 -99.9  64.8 1012.9 -9.9 -9.999 -99.9 -99.99 -9.99
2019/11/17 16:00 PST    2.06   2.33 -999 -999 -999 -99.9  64.8 1012.9 -9.9 -9.999 -99.9 -99.99 -9.99
2019/11/17 16:06 PST    1.96   2.20 -999 -999 -999 -99.9  64.8 1012.9 -9.9 -9.999 -99.9 -99.99 -9.99
2019/11/17 16:12 PST    1.86   2.12 -999 -999 -999 -99.9  64.8 1013.0 -9.9 -9.999 -99.9 -99.99 -9.99
2019/11/17 16:18 PST    1.76   2.06 -999 -999 -999 -99.9  64.8 1013.0 -9.9 -9.999 -99.9 -99.99 -9.99
2019/11/17 16:24 PST    1.66   1.95 -999 -999 -999 -99.9  64.8 1013.0 -9.9 -9.999 -99.9 -99.99 -9.99
2019/11/17 16:30 PST    1.57   1.84 -999 -999 -999 -99.9  64.8 1013.0 -9.9 -9.999 -99.9 -99.99 -9.99
2019/11/17 16:36 PST    1.47   1.76 -999 -999 -999 -99.9  64.9 1012.9 -9.9 -9.999 -99.9 -99.99 -9.99
2019/11/17 16:42 PST    1.38   1.72 -999 -999 -999 -99.9  64.9 1012.9 -9.9 -9.999 -99.9 -99.99 -9.99
2019/11/17 16:48 PST    1.29   1.61 -999 -999 -999 -99.9  64.9 1013.0 -9.9 -9.999 -99.9 -99.99 -9.99
2019/11/17 16:54 PST    1.20   1.50 -999 -999 -999 -99.9  64.9 1013.0 -9.9 -9.999 -99.9 -99.99 -9.99
2019/11/17 17:00 PST    1.12   1.36 -999 -999 -999 -99.9  64.9 1013.0 -9.9 -9.999 -99.9 -99.99 -9.99
2019/11/17 17:06 PST    1.03   1.23 -999 -999 -999 -99.9  64.9 1013.1 -9.9 -9.999 -99.9 -99.99 -9.99
2019/11/17 17:12 PST    0.95   1.19 -999 -999 -999 -99.9  65.1 1013.2 -9.9 -9.999 -99.9 -99.99 -9.99
2019/11/17 17:18 PST    0.88   1.16 -999 -999 -999 -99.9  65.1 1013.2 -9.9 -9.999 -99.9 -99.99 -9.99
2019/11/17 17:24 PST    0.80   1.10 -999 -999 -999 -99.9  65.1 1013.2 -9.9 -9.999 -99.9 -99.99 -9.99
2019/11/17 17:30 PST    0.73   1.03 -999 -999 -999 -99.9  65.1 1013.2 -9.9 -9.999 -99.9 -99.99 -9.99
2019/11/17 17:36 PST    0.67   0.98 -999 -999 -999 -99.9  65.1 1013.3 -9.9 -9.999 -99.9 -99.99 -9.99
2019/11/17 17:42 PST    0.60   0.90 -999 -999 -999 -99.9  65.1 1013.3 -9.9 -9.999 -99.9 -99.99 -9.99
2019/11/17 17:48 PST    0.54   0.83 -999 -999 -999 -99.9  65.1 1013.4 -9.9 -9.999 -99.9 -99.99 -9.99
2019/11/17 17:54 PST    0.49   0.75 -999 -999 -999 -99.9  65.1 1013.4 -9.9 -9.999 -99.9 -99.99 -9.99
2019/11/17 18:00 PST    0.43   0.70 -999 -999 -999 -99.9  65.1 1013.4 -9.9 -9.999 -99.9 -99.99 -9.99
2019/11/17 18:06 PST    0.39   0.68 -999 -999 -999 -99.9  65.1 1013.4 -9.9 -9.999 -99.9 -99.99 -9.99
2019/11/17 18:12 PST    0.34   0.63 -999 -999 -999 -99.9  65.1 1013.5 -9.9 -9.999 -99.9 -99.99 -9.99
2019/11/17 18:18 PST    0.30   0.61 -999 -999 -999 -99.9  65.1 1013.5 -9.9 -9.999 -99.9 -99.99 -9.99
2019/11/17 18:24 PST    0.26   0.58 -999 -999 -999 -99.9  65.1 1013.4 -9.9 -9.999 -99.9 -99.99 -9.99
2019/11/17 18:30 PST    0.23   0.60 -999 -999 -999 -99.9  65.1 1013.4 -9.9 -9.999 -99.9 -99.99 -9.99
2019/11/17 18:36 PST    0.20   0.56 -999 -999 -999 -99.9  65.1 1013.5 -9.9 -9.999 -99.9 -99.99 -9.99
2019/11/17 18:42 PST    0.17   0.51 -999 -999 -999 -99.9  65.1 1013.4 -9.9 -9.999 -99.9 -99.99 -9.99
2019/11/17 18:48 PST    0.15   0.48 -999 -999 -999 -99.9  65.1 1013.4 -9.9 -9.999 -99.9 -99.99 -9.99
2019/11/17 18:54 PST    0.13   0.42 -999 -999 -999 -99.9  65.1 1013.5 -9.9 -9.999 -99.9 -99.99 -9.99
2019/11/17 19:00 PST    0.12   0.38 -999 -999 -999 -99.9  65.1 1013.6 -9.9 -9.999 -99.9 -99.99 -9.99
2019/11/17 19:06 PST    0.11   0.39 -999 -999 -999 -99.9  65.1 1013.6 -9.9 -9.999 -99.9 -99.99 -9.99
2019/11/17 19:12 PST    0.10   0.42 -999 -999 -999 -99.9  65.1 1013.6 -9.9 -9.999 -99.9 -99.99 -9.99
2019/11/17 19:18 PST    0.10   0.42 -999 -999 -999 -99.9  65.1 1013.6 -9.9 -9.999 -99.9 -99.99 -9.99
2019/11/17 19:24 PST    0.10   0.46 -999 -999 -999 -99.9  65.1 1013.6 -9.9 -9.999 -99.9 -99.99 -9.99
2019/11/17 19:30 PST    0.11   0.51 -999 -999 -999 -99.9  65.1 1013.6 -9.9 -9.999 -99.9 -99.99 -9.99
2019/11/17 19:36 PST    0.12   0.53 -999 -999 -999 -99.9  65.1 1013.6 -9.9 -9.999 -99.9 -99.99 -9.99
2019/11/17 19:42 PST    0.13   0.48 -999 -999 -999 -99.9  65.1 1013.6 -9.9 -9.999 -99.9 -99.99 -9.99
2019/11/17 19:48 PST    0.15   0.45 -999 -999 -999 -99.9  65.1 1013.6 -9.9 -9.999 -99.9 -99.99 -9.99
2019/11/17 19:54 PST    0.17   0.47 -999 -999 -999 -99.9  65.1 1013.6 -9.9 -9.999 -99.9 -99.99 -9.99
2019/11/17 20:00 PST    0.19   0.49 -999 -999 -999 -99.9  65.1 1013.6 -9.9 -9.999 -99.9 -99.99 -9.99
2019/11/17 20:06 PST    0.22   0.49 -999 -999 -999 -99.9  65.1 1013.7 -9.9 -9.999 -99.9 -99.99 -9.99
2019/11/17 20:12 PST    0.25   0.49 -999 -999 -999 -99.9  65.1 1013.8 -9.9 -9.999 -99.9 -99.99 -9.99
2019/11/17 20:18 PST    0.29   0.52 -999 -999 -999 -99.9  65.1 1013.8 -9.9 -9.999 -99.9 -99.99 -9.99
2019/11/17 20:24 PST    0.33   0.61 -999 -999 -999 -99.9  65.1 1013.9 -9.9 -9.999 -99.9 -99.99 -9.99
2019/11/17 20:30 PST    0.37   0.73 -999 -999 -999 -99.9  65.1 1013.8 -9.9 -9.999 -99.9 -99.99 -9.99
2019/11/17 20:36 PST    0.41   0.77 -999 -999 -999 -99.9  65.1 1013.9 -9.9 -9.999 -99.9 -99.99 -9.99
2019/11/17 20:42 PST    0.46   0.82 -999 -999 -999 -99.9  65.1 1013.9 -9.9 -9.999 -99.9 -99.99 -9.99
2019/11/17 20:48 PST    0.51   0.86 -999 -999 -999 -99.9  65.1 1014.0 -9.9 -9.999 -99.9 -99.99 -9.99
2019/11/17 20:54 PST    0.56   0.93 -999 -999 -999 -99.9  65.1 1013.9 -9.9 -9.999 -99.9 -99.99 -9.99
2019/11/17 21:00 PST    0.61   0.96 -999 -999 -999 -99.9  65.1 1013.9 -9.9 -9.999 -99.9 -99.99 -9.99
2019/11/17 21:06 PST    0.67   0.99 -999 -999 -999 -99.9  65.1 1014.0 -9.9 -9.999 -99.9 -99.99 -9.99
2019/11/17 21:12 PST    0.73   1.00 -999 -999 -999 -99.9  65.1 1013.9 -9.9 -9.999 -99.9 -99.99 -9.99
2019/11/17 21:18 PST    0.79   1.05 -999 -999 -999 -99.9  65.1 1013.9 -9.9 -9.999 -99.9 -99.99 -9.99
2019/11/17 21:24 PST    0.86   1.14 -999 -999 -999 -99.9  65.1 1013.9 -9.9 -9.999 -99.9 -99.99 -9.99
2019/11/17 21:30 PST    0.92   1.24 -999 -999 -999 -99.9  65.1 1013.9 -9.9 -9.999 -99.9 -99.99 -9.99
2019/11/17 21:36 PST    0.99   1.36 -999 -999 -999 -99.9  65.1 1013.9 -9.9 -9.999 -99.9 -99.99 -9.99
2019/11/17 21:42 PST    1.06   1.40 -999 -999 -999 -99.9  65.1 1014.0 -9.9 -9.999 -99.9 -99.99 -9.99
2019/11/17 21:48 PST    1.13   1.45 -999 -999 -999 -99.9  65.1 1014.0 -9.9 -9.999 -99.9 -99.99 -9.99
2019/11/17 21:54 PST    1.20   1.51 -999 -999 -999 -99.9  65.1 1014.0 -9.9 -9.999 -99.9 -99.99 -9.99
2019/11/17 22:00 PST    1.27   1.60 -999 -999 -999 -99.9  65.1 1014.0 -9.9 -9.999 -99.9 -99.99 -9.99
2019/11/17 22:06 PST    1.34   1.67 -999 -999 -999 -99.9  65.1 1014.0 -9.9 -9.999 -99.9 -99.99 -9.99
2019/11/17 22:12 PST    1.42   1.75 -999 -999 -999 -99.9  65.1 1013.9 -9.9 -9.999 -99.9 -99.99 -9.99
2019/11/17 22:18 PST    1.49   1.83 -999 -999 -999 -99.9  65.1 1013.9 -9.9 -9.999 -99.9 -99.99 -9.99
2019/11/17 22:24 PST    1.57   1.93 -999 -999 -999 -99.9  65.1 1014.0 -9.9 -9.999 -99.9 -99.99 -9.99
2019/11/17 22:30 PST    1.64   2.04 -999 -999 -999 -99.9  64.9 1013.9 -9.9 -9.999 -99.9 -99.99 -9.99
2019/11/17 22:36 PST    1.72   2.07 -999 -999 -999 -99.9  64.9 1013.9 -9.9 -9.999 -99.9 -99.99 -9.99
2019/11/17 22:42 PST    1.79   2.14 -999 -999 -999 -99.9  64.9 1013.9 -9.9 -9.999 -99.9 -99.99 -9.99
2019/11/17 22:48 PST    1.87   2.22 -999 -999 -999 -99.9  64.9 1013.8 -9.9 -9.999 -99.9 -99.99 -9.99
2019/11/17 22:54 PST    1.94   2.31 -999 -999 -999 -99.9  64.9 1013.8 -9.9 -9.999 -99.9 -99.99 -9.99
2019/11/17 23:00 PST    2.02   2.41 -999 -999 -999 -99.9  64.9 1013.7 -9.9 -9.999 -99.9 -99.99 -9.99
2019/11/17 23:06 PST    2.09   2.53 -999 -999 -999 -99.9  64.9 1013.7 -9.9 -9.999 -99.9 -99.99 -9.99
2019/11/17 23:12 PST    2.17   2.61 -999 -999 -999 -99.9  64.9 1013.6 -9.9 -9.999 -99.9 -99.99 -9.99
2019/11/17 23:18 PST    2.24 -99.99 -999 -999 -999 -99.9 -99.9 -999.9 -9.9 -9.999 -99.9 -99.99 -9.99
2019/11/17 23:24 PST    2.31 -99.99 -999 -999 -999 -99.9 -99.9 -999.9 -9.9 -9.999 -99.9 -99.99 -9.99